<?xml version='1.0' encoding='UTF-8'?><gpx version="1.1" creator="JPX - https://github.com/jenetics/jpx" xmlns="http://www.topografix.com/GPX/1/1"><trk><trkseg><trkpt lat="43.585028860398126" lon="11.335609095115077"><ele>350.0</ele><time>2026-03-31T17:52:09.999Z</time></trkpt><trkpt lat="43.5850568129353" lon="11.335708119756921"><ele>350.0</ele><time>2026-03-31T17:52:13.999Z</time></trkpt><trkpt lat="43.58506002783005" lon="11.335802892293865"><ele>350.0</ele><time>2026-03-31T17:52:16.999Z</time></trkpt><trkpt lat="43.58506418130237" lon="11.335899916715494"><ele>350.0</ele><time>2026-03-31T17:52:19.999Z</time></trkpt><trkpt lat="43.585046395360465" lon="11.335990913216001"><ele>350.0</ele><time>2026-03-31T17:52:22.999Z</time></trkpt><trkpt lat="43.5850647075672" lon="11.336094065328416"><ele>350.0</ele><time>2026-03-31T17:54:38.999Z</time></trkpt><trkpt lat="43.58507944991655" lon="11.336207331420617"><ele>350.0</ele><time>2026-03-31T17:54:42.999Z</time></trkpt><trkpt lat="43.58508052667494" lon="11.336307516034397"><ele>353.42857142857144</ele><time>2026-03-31T17:54:45.999Z</time></trkpt><trkpt lat="43.585075860841265" lon="11.336397449051528"><ele>356.8571428571429</ele><time>2026-03-31T17:54:47.999Z</time></trkpt><trkpt lat="43.58507490271258" lon="11.336486067173709"><ele>360.2857142857143</ele><time>2026-03-31T17:54:49.999Z</time></trkpt><trkpt lat="43.58507805231169" lon="11.336578370957804"><ele>363.7142857142857</ele><time>2026-03-31T17:54:51.999Z</time></trkpt><trkpt lat="43.585085977560595" lon="11.33668364118136"><ele>367.14285714285717</ele><time>2026-03-31T17:54:53.999Z</time></trkpt><trkpt lat="43.58509495977457" lon="11.33677939992324"><ele>370.57142857142856</ele><time>2026-03-31T17:54:55.999Z</time></trkpt><trkpt lat="43.585096696830156" lon="11.336921920717243"><ele>374.0</ele><time>2026-03-31T17:54:59Z</time></trkpt><trkpt lat="43.58511471386368" lon="11.337032559018285"><ele>374.0</ele><time>2026-03-31T17:55:01Z</time></trkpt><trkpt lat="43.58513650196146" lon="11.337142252088935"><ele>374.0</ele><time>2026-03-31T17:55:04Z</time></trkpt><trkpt lat="43.585143423916165" lon="11.337237507232954"><ele>374.0</ele><time>2026-03-31T17:55:36Z</time></trkpt><trkpt lat="43.585159674379625" lon="11.337339392755423"><ele>374.0</ele><time>2026-03-31T18:01:06.999Z</time></trkpt><trkpt lat="43.5851979289102" lon="11.337424035151887"><ele>374.0</ele><time>2026-03-31T18:01:09.999Z</time></trkpt><trkpt lat="43.58520828474925" lon="11.337532121019159"><ele>374.0</ele><time>2026-03-31T18:01:13.999Z</time></trkpt><trkpt lat="43.58525299880186" lon="11.337612392776615"><ele>377.5</ele><time>2026-03-31T18:01:15.999Z</time></trkpt><trkpt lat="43.58531078607161" lon="11.337703173945844"><ele>381.0</ele><time>2026-03-31T18:01:19Z</time></trkpt><trkpt lat="43.585355855708556" lon="11.337777521317387"><ele>384.5</ele><time>2026-03-31T18:01:21Z</time></trkpt><trkpt lat="43.58540314419717" lon="11.337867948913892"><ele>388.0</ele><time>2026-03-31T18:01:24Z</time></trkpt><trkpt lat="43.585457197510515" lon="11.33795405344374"><ele>391.49999999999994</ele><time>2026-03-31T18:01:27Z</time></trkpt><trkpt lat="43.585502700431036" lon="11.338019477992695"><ele>395.0</ele><time>2026-03-31T18:01:30Z</time></trkpt><trkpt lat="43.58554894366215" lon="11.338083142993087"><ele>400.49999999999994</ele><time>2026-03-31T18:01:32Z</time></trkpt><trkpt lat="43.58558609514105" lon="11.338198168316856"><ele>406.0</ele><time>2026-03-31T18:01:35Z</time></trkpt><trkpt lat="43.58564115100099" lon="11.338266831201045"><ele>411.5</ele><time>2026-03-31T18:01:38Z</time></trkpt><trkpt lat="43.585698301326005" lon="11.338355199651494"><ele>417.0</ele><time>2026-03-31T18:01:41Z</time></trkpt><trkpt lat="43.58574405655339" lon="11.338452033227977"><ele>422.49999999999994</ele><time>2026-03-31T18:01:44Z</time></trkpt><trkpt lat="43.58578347068318" lon="11.338536744252732"><ele>428.0</ele><time>2026-03-31T18:04:53.999Z</time></trkpt><trkpt lat="43.58583223403751" lon="11.338613037532436"><ele>427.99999999999994</ele><time>2026-03-31T18:05:46Z</time></trkpt><trkpt lat="43.585894033417084" lon="11.338681099726307"><ele>428.0</ele><time>2026-03-31T18:05:49Z</time></trkpt><trkpt lat="43.58593636601757" lon="11.338787576190397"><ele>428.0</ele><time>2026-03-31T18:05:53Z</time></trkpt><trkpt lat="43.58597972804347" lon="11.338863098012954"><ele>428.0</ele><time>2026-03-31T18:05:55Z</time></trkpt><trkpt lat="43.58602224389115" lon="11.338952883727599"><ele>427.99999999999994</ele><time>2026-03-31T18:05:58Z</time></trkpt><trkpt lat="43.58606846128083" lon="11.339030109007837"><ele>428.0</ele><time>2026-03-31T18:06:01Z</time></trkpt><trkpt lat="43.58609644940559" lon="11.339116771541581"><ele>430.99999999999994</ele><time>2026-03-31T18:06:03Z</time></trkpt><trkpt lat="43.586123280636464" lon="11.33924585894922"><ele>434.0</ele><time>2026-03-31T18:06:06Z</time></trkpt><trkpt lat="43.58613828527387" lon="11.33937027680087"><ele>437.0</ele><time>2026-03-31T18:06:08Z</time></trkpt><trkpt lat="43.586153990763094" lon="11.339471261414502"><ele>440.0</ele><time>2026-03-31T18:06:10Z</time></trkpt><trkpt lat="43.58616524723684" lon="11.339587662591684"><ele>442.99999999999994</ele><time>2026-03-31T18:06:12Z</time></trkpt><trkpt lat="43.586197225766206" lon="11.339678122594655"><ele>446.0</ele><time>2026-03-31T18:06:14Z</time></trkpt><trkpt lat="43.58621645448199" lon="11.339790349113278"><ele>448.8333333333333</ele><time>2026-03-31T18:06:17Z</time></trkpt><trkpt lat="43.58622211529401" lon="11.339887497874665"><ele>451.66666666666663</ele><time>2026-03-31T18:06:19.999Z</time></trkpt><trkpt lat="43.58625246094479" lon="11.340008308117197"><ele>454.5</ele><time>2026-03-31T18:06:22.999Z</time></trkpt><trkpt lat="43.5862718013052" lon="11.340093444664125"><ele>457.33333333333337</ele><time>2026-03-31T18:06:24.999Z</time></trkpt><trkpt lat="43.58628753552758" lon="11.340223932474286"><ele>460.1666666666667</ele><time>2026-03-31T18:06:27.999Z</time></trkpt><trkpt lat="43.586289910797646" lon="11.340328335134323"><ele>463.0</ele><time>2026-03-31T18:06:29.999Z</time></trkpt><trkpt lat="43.58630624917538" lon="11.340432263413227"><ele>463.00000000000006</ele><time>2026-03-31T18:06:31.999Z</time></trkpt><trkpt lat="43.586318639369765" lon="11.340542454256777"><ele>463.0</ele><time>2026-03-31T18:06:33.999Z</time></trkpt><trkpt lat="43.586321719953176" lon="11.34063197281072"><ele>463.0</ele><time>2026-03-31T18:06:35.999Z</time></trkpt><trkpt lat="43.58636834028033" lon="11.340734613565587"><ele>463.0</ele><time>2026-03-31T18:06:39.999Z</time></trkpt><trkpt lat="43.58642876787173" lon="11.34080491717374"><ele>463.00000000000006</ele><time>2026-03-31T18:06:42.999Z</time></trkpt><trkpt lat="43.58648636069773" lon="11.34075459199247"><ele>463.0</ele><time>2026-03-31T18:06:58.999Z</time></trkpt><trkpt lat="43.586545552093874" lon="11.340824668811534"><ele>464.0</ele><time>2026-03-31T18:07:08.999Z</time></trkpt><trkpt lat="43.58660205451567" lon="11.340881881652468"><ele>464.99999999999994</ele><time>2026-03-31T18:07:19.999Z</time></trkpt><trkpt lat="43.586571955380734" lon="11.34097583456185"><ele>466.0</ele><time>2026-03-31T18:07:58Z</time></trkpt><trkpt lat="43.58660207235738" lon="11.34105240049808"><ele>467.0</ele><time>2026-03-31T18:08:01Z</time></trkpt><trkpt lat="43.58661661969462" lon="11.341145514884875"><ele>467.99999999999994</ele><time>2026-03-31T18:08:04Z</time></trkpt><trkpt lat="43.58661735186343" lon="11.341246307310065"><ele>469.0</ele><time>2026-03-31T18:08:06Z</time></trkpt><trkpt lat="43.586644798909546" lon="11.34135641492011"><ele>470.0</ele><time>2026-03-31T18:08:08Z</time></trkpt><trkpt lat="43.58666596370679" lon="11.341479627286326"><ele>470.6</ele><time>2026-03-31T18:08:10Z</time></trkpt><trkpt lat="43.58668069001479" lon="11.341581471507332"><ele>471.2</ele><time>2026-03-31T18:08:12Z</time></trkpt><trkpt lat="43.58666043536474" lon="11.341712729508124"><ele>471.79999999999995</ele><time>2026-03-31T18:08:14Z</time></trkpt><trkpt lat="43.58660671618874" lon="11.341840107996031"><ele>472.4</ele><time>2026-03-31T18:08:16Z</time></trkpt><trkpt lat="43.58656129342264" lon="11.341956916791005"><ele>473.0</ele><time>2026-03-31T18:08:18Z</time></trkpt><trkpt lat="43.58654245517907" lon="11.342090997989315"><ele>474.2</ele><time>2026-03-31T18:08:20Z</time></trkpt><trkpt lat="43.58652888146007" lon="11.34222194695214"><ele>475.4</ele><time>2026-03-31T18:08:22Z</time></trkpt><trkpt lat="43.586485397805696" lon="11.342327453819907"><ele>476.59999999999997</ele><time>2026-03-31T18:08:24Z</time></trkpt><trkpt lat="43.586451987407095" lon="11.3424503356255"><ele>477.79999999999995</ele><time>2026-03-31T18:08:26Z</time></trkpt><trkpt lat="43.58641919926967" lon="11.342582080316278"><ele>479.0</ele><time>2026-03-31T18:08:28Z</time></trkpt><trkpt lat="43.586393965505536" lon="11.342684493900665"><ele>478.99999999999994</ele><time>2026-03-31T18:08:30Z</time></trkpt><trkpt lat="43.58636639285199" lon="11.342834248568149"><ele>479.0</ele><time>2026-03-31T18:08:32Z</time></trkpt><trkpt lat="43.58634968018419" lon="11.3429393757123"><ele>479.0</ele><time>2026-03-31T18:08:34.999Z</time></trkpt><trkpt lat="43.586367325255075" lon="11.342796139398923"><ele>479.0</ele><time>2026-03-31T18:09:33.999Z</time></trkpt><trkpt lat="43.586392289080116" lon="11.342701481668685"><ele>478.99999999999994</ele><time>2026-03-31T18:09:35.999Z</time></trkpt><trkpt lat="43.58641376303953" lon="11.34261259862347"><ele>479.0</ele><time>2026-03-31T18:09:37.999Z</time></trkpt><trkpt lat="43.58644116819402" lon="11.342499088180915"><ele>478.99999999999994</ele><time>2026-03-31T18:09:40Z</time></trkpt><trkpt lat="43.58646147719899" lon="11.34238108003048"><ele>479.0</ele><time>2026-03-31T18:09:42Z</time></trkpt><trkpt lat="43.58649223451206" lon="11.342300074030883"><ele>479.0</ele><time>2026-03-31T18:09:44Z</time></trkpt><trkpt lat="43.586447242349614" lon="11.342231351931396"><ele>479.0</ele><time>2026-03-31T18:09:47Z</time></trkpt><trkpt lat="43.5863788422438" lon="11.342247382206097"><ele>478.99999999999994</ele><time>2026-03-31T18:09:49Z</time></trkpt><trkpt lat="43.58634357640451" lon="11.342360015374052"><ele>479.0</ele><time>2026-03-31T18:09:52Z</time></trkpt><trkpt lat="43.58624545094555" lon="11.342418485078591"><ele>480.0</ele><time>2026-03-31T18:09:54Z</time></trkpt><trkpt lat="43.58613916696516" lon="11.34243625286515"><ele>481.0</ele><time>2026-03-31T18:09:56Z</time></trkpt><trkpt lat="43.58604149138261" lon="11.342427213717231"><ele>482.0</ele><time>2026-03-31T18:09:58Z</time></trkpt><trkpt lat="43.58596623434583" lon="11.342427730259267"><ele>483.0</ele><time>2026-03-31T18:10:00Z</time></trkpt><trkpt lat="43.58588068705504" lon="11.342401523281584"><ele>484.0</ele><time>2026-03-31T18:10:02Z</time></trkpt><trkpt lat="43.58579382523589" lon="11.342344517187431"><ele>484.0</ele><time>2026-03-31T18:10:04Z</time></trkpt><trkpt lat="43.58572288947002" lon="11.342375723927487"><ele>483.99999999999994</ele><time>2026-03-31T18:10:07Z</time></trkpt><trkpt lat="43.585663615264274" lon="11.342336223441968"><ele>484.0</ele><time>2026-03-31T18:10:14Z</time></trkpt><trkpt lat="43.585598311330976" lon="11.34237619999319"><ele>484.0</ele><time>2026-03-31T18:10:20Z</time></trkpt><trkpt lat="43.58552004498151" lon="11.342346247180213"><ele>483.99999999999994</ele><time>2026-03-31T18:10:27Z</time></trkpt><trkpt lat="43.585476873446076" lon="11.342275277047822"><ele>484.0</ele><time>2026-03-31T18:10:30Z</time></trkpt><trkpt lat="43.585426462988835" lon="11.34217956428368"><ele>484.0</ele><time>2026-03-31T18:10:32.999Z</time></trkpt><trkpt lat="43.58537486440527" lon="11.342252364436272"><ele>482.83333333333337</ele><time>2026-03-31T18:10:41.999Z</time></trkpt><trkpt lat="43.58530786018391" lon="11.342257523107069"><ele>481.6666666666667</ele><time>2026-03-31T18:10:44.999Z</time></trkpt><trkpt lat="43.58522641713562" lon="11.342188837695812"><ele>480.5</ele><time>2026-03-31T18:10:47.999Z</time></trkpt><trkpt lat="43.58518993776785" lon="11.342114497915443"><ele>479.33333333333337</ele><time>2026-03-31T18:10:49.999Z</time></trkpt><trkpt lat="43.58512288858559" lon="11.342117528588737"><ele>478.1666666666667</ele><time>2026-03-31T18:10:51.999Z</time></trkpt><trkpt lat="43.58505811367925" lon="11.3421500737845"><ele>477.0</ele><time>2026-03-31T18:10:52.999Z</time></trkpt><trkpt lat="43.58497779968039" lon="11.342208947909903"><ele>477.0</ele><time>2026-03-31T18:10:54.999Z</time></trkpt><trkpt lat="43.58491502490593" lon="11.34226717214055"><ele>477.0</ele><time>2026-03-31T18:10:56.999Z</time></trkpt><trkpt lat="43.58489562819453" lon="11.34236522714997"><ele>477.0</ele><time>2026-03-31T18:10:57.999Z</time></trkpt><trkpt lat="43.58487509517879" lon="11.342478189720332"><ele>477.0</ele><time>2026-03-31T18:10:58.999Z</time></trkpt><trkpt lat="43.584846321597226" lon="11.3425861785797"><ele>477.0</ele><time>2026-03-31T18:10:59.999Z</time></trkpt><trkpt lat="43.58481495102643" lon="11.342698972232665"><ele>477.0</ele><time>2026-03-31T18:11:00.999Z</time></trkpt><trkpt lat="43.58477905862352" lon="11.342820221091435"><ele>477.0</ele><time>2026-03-31T18:11:01.999Z</time></trkpt><trkpt lat="43.58474612185176" lon="11.34296152126565"><ele>477.00000000000006</ele><time>2026-03-31T18:11:02.999Z</time></trkpt><trkpt lat="43.58471447145029" lon="11.34309708948004"><ele>477.00000000000006</ele><time>2026-03-31T18:11:03.999Z</time></trkpt><trkpt lat="43.584685907284126" lon="11.343225885186753"><ele>477.0</ele><time>2026-03-31T18:11:04.999Z</time></trkpt><trkpt lat="43.58467638685431" lon="11.343348220112317"><ele>477.0</ele><time>2026-03-31T18:11:05.999Z</time></trkpt><trkpt lat="43.584664589542015" lon="11.34346010644659"><ele>478.40000000000003</ele><time>2026-03-31T18:11:06.999Z</time></trkpt><trkpt lat="43.584698672625436" lon="11.343591046128694"><ele>479.80000000000007</ele><time>2026-03-31T18:11:07.999Z</time></trkpt><trkpt lat="43.58473399771844" lon="11.343713091395996"><ele>481.2</ele><time>2026-03-31T18:11:08.999Z</time></trkpt><trkpt lat="43.584777368561" lon="11.343844175601562"><ele>482.6</ele><time>2026-03-31T18:11:09.999Z</time></trkpt><trkpt lat="43.58482541671853" lon="11.343976055016542"><ele>484.0</ele><time>2026-03-31T18:11:10.999Z</time></trkpt><trkpt lat="43.58486674057828" lon="11.344099945803244"><ele>484.83333333333337</ele><time>2026-03-31T18:11:11.999Z</time></trkpt><trkpt lat="43.58489832653339" lon="11.344219422771262"><ele>485.6666666666667</ele><time>2026-03-31T18:11:12.999Z</time></trkpt><trkpt lat="43.584911297858106" lon="11.344333830831768"><ele>486.5</ele><time>2026-03-31T18:11:13.999Z</time></trkpt><trkpt lat="43.58487907212962" lon="11.344426326101402"><ele>487.33333333333337</ele><time>2026-03-31T18:11:14.999Z</time></trkpt><trkpt lat="43.58482149009908" lon="11.34448944828304"><ele>488.1666666666667</ele><time>2026-03-31T18:11:15.999Z</time></trkpt><trkpt lat="43.58474848255604" lon="11.344521609260488"><ele>489.0</ele><time>2026-03-31T18:11:16.999Z</time></trkpt><trkpt lat="43.58465894125174" lon="11.344523936243341"><ele>489.0</ele><time>2026-03-31T18:11:17.999Z</time></trkpt><trkpt lat="43.58456241982319" lon="11.344528498525541"><ele>489.0</ele><time>2026-03-31T18:11:18.999Z</time></trkpt><trkpt lat="43.58445666194222" lon="11.344547427657371"><ele>489.0</ele><time>2026-03-31T18:11:19.999Z</time></trkpt><trkpt lat="43.584359076283604" lon="11.344555139775105"><ele>489.0</ele><time>2026-03-31T18:11:20.999Z</time></trkpt><trkpt lat="43.584263051472576" lon="11.344564067960539"><ele>489.0</ele><time>2026-03-31T18:11:21.999Z</time></trkpt><trkpt lat="43.58416583284615" lon="11.344576772829972"><ele>488.2</ele><time>2026-03-31T18:11:22.999Z</time></trkpt><trkpt lat="43.58408586360544" lon="11.344615517755917"><ele>487.4</ele><time>2026-03-31T18:11:23.999Z</time></trkpt><trkpt lat="43.58401612508291" lon="11.344673257438933"><ele>486.6</ele><time>2026-03-31T18:11:24.999Z</time></trkpt><trkpt lat="43.58397090369835" lon="11.344788656604578"><ele>485.8</ele><time>2026-03-31T18:11:25.999Z</time></trkpt><trkpt lat="43.58395186799368" lon="11.344929981585155"><ele>485.0</ele><time>2026-03-31T18:11:26.999Z</time></trkpt><trkpt lat="43.583971963732736" lon="11.345058525085733"><ele>485.0</ele><time>2026-03-31T18:11:27.999Z</time></trkpt><trkpt lat="43.58397716777127" lon="11.345187316166498"><ele>485.0</ele><time>2026-03-31T18:11:28.999Z</time></trkpt><trkpt lat="43.584000857772246" lon="11.34531099621862"><ele>485.0</ele><time>2026-03-31T18:11:29.999Z</time></trkpt><trkpt lat="43.58403058383774" lon="11.345439938973339"><ele>485.0</ele><time>2026-03-31T18:11:30.999Z</time></trkpt><trkpt lat="43.58408631699951" lon="11.345559969295778"><ele>485.0</ele><time>2026-03-31T18:11:31.999Z</time></trkpt><trkpt lat="43.58413218164547" lon="11.345678539651663"><ele>485.2</ele><time>2026-03-31T18:11:32.999Z</time></trkpt><trkpt lat="43.58418141680423" lon="11.345805061975444"><ele>485.4</ele><time>2026-03-31T18:11:33.999Z</time></trkpt><trkpt lat="43.58426915597115" lon="11.345888880586484"><ele>485.6</ele><time>2026-03-31T18:11:34.999Z</time></trkpt><trkpt lat="43.58434766407055" lon="11.345983383372248"><ele>485.8</ele><time>2026-03-31T18:11:35.999Z</time></trkpt><trkpt lat="43.58442534027128" lon="11.346085740320024"><ele>486.0</ele><time>2026-03-31T18:11:36.999Z</time></trkpt><trkpt lat="43.58451688158817" lon="11.346194646642422"><ele>487.20000000000005</ele><time>2026-03-31T18:11:37.999Z</time></trkpt><trkpt lat="43.5846160675902" lon="11.346290145260058"><ele>488.40000000000003</ele><time>2026-03-31T18:11:38.999Z</time></trkpt><trkpt lat="43.58470136521096" lon="11.346363656718408"><ele>489.6</ele><time>2026-03-31T18:11:39.999Z</time></trkpt><trkpt lat="43.584795827187385" lon="11.346413852210654"><ele>490.8</ele><time>2026-03-31T18:11:40.999Z</time></trkpt><trkpt lat="43.584896981345025" lon="11.346436476134842"><ele>492.0</ele><time>2026-03-31T18:11:41.999Z</time></trkpt><trkpt lat="43.58500550425353" lon="11.346436595796776"><ele>492.0</ele><time>2026-03-31T18:11:42.999Z</time></trkpt><trkpt lat="43.58511955170303" lon="11.3464152032444"><ele>492.00000000000006</ele><time>2026-03-31T18:11:43.999Z</time></trkpt><trkpt lat="43.585224550885435" lon="11.346389477865298"><ele>492.00000000000006</ele><time>2026-03-31T18:11:44.999Z</time></trkpt><trkpt lat="43.58532536370717" lon="11.346368783951846"><ele>492.0</ele><time>2026-03-31T18:11:46Z</time></trkpt><trkpt lat="43.58542449798167" lon="11.3463445160791"><ele>492.0</ele><time>2026-03-31T18:11:47Z</time></trkpt><trkpt lat="43.585518649932446" lon="11.346321263223397"><ele>494.20000000000005</ele><time>2026-03-31T18:11:48Z</time></trkpt><trkpt lat="43.585614421933585" lon="11.346300377653192"><ele>496.40000000000003</ele><time>2026-03-31T18:11:49Z</time></trkpt><trkpt lat="43.58570582419707" lon="11.346284470330511"><ele>498.59999999999997</ele><time>2026-03-31T18:11:50Z</time></trkpt><trkpt lat="43.58578217258249" lon="11.34626563640778"><ele>500.79999999999995</ele><time>2026-03-31T18:11:51Z</time></trkpt><trkpt lat="43.58591216184285" lon="11.346301654138522"><ele>503.0</ele><time>2026-03-31T18:11:53Z</time></trkpt><trkpt lat="43.58602228932117" lon="11.34637995619921"><ele>503.0</ele><time>2026-03-31T18:11:55Z</time></trkpt><trkpt lat="43.586061266620014" lon="11.34646344917023"><ele>502.99999999999994</ele><time>2026-03-31T18:11:56Z</time></trkpt><trkpt lat="43.5860742984313" lon="11.346583669879534"><ele>502.99999999999994</ele><time>2026-03-31T18:11:57Z</time></trkpt><trkpt lat="43.586090294342334" lon="11.346703945984752"><ele>503.0</ele><time>2026-03-31T18:11:58Z</time></trkpt><trkpt lat="43.58609125807882" lon="11.346841873581196"><ele>503.0</ele><time>2026-03-31T18:11:59Z</time></trkpt><trkpt lat="43.586081643471076" lon="11.346981389201758"><ele>503.0</ele><time>2026-03-31T18:12:00Z</time></trkpt><trkpt lat="43.58606826466083" lon="11.347123993418391"><ele>502.99999999999994</ele><time>2026-03-31T18:12:01Z</time></trkpt><trkpt lat="43.58606485522431" lon="11.347236034364462"><ele>502.99999999999994</ele><time>2026-03-31T18:12:02Z</time></trkpt><trkpt lat="43.5860807866947" lon="11.347342695766924"><ele>503.0</ele><time>2026-03-31T18:12:03Z</time></trkpt><trkpt lat="43.586160689784215" lon="11.347430962984493"><ele>503.0</ele><time>2026-03-31T18:12:04Z</time></trkpt><trkpt lat="43.586228770316566" lon="11.347520151946068"><ele>507.0</ele><time>2026-03-31T18:12:05Z</time></trkpt><trkpt lat="43.58629206309731" lon="11.347617386417037"><ele>510.99999999999994</ele><time>2026-03-31T18:12:06Z</time></trkpt><trkpt lat="43.58632251079841" lon="11.347740342728684"><ele>515.0</ele><time>2026-03-31T18:12:07Z</time></trkpt><trkpt lat="43.5863495113722" lon="11.34786128414406"><ele>519.0</ele><time>2026-03-31T18:12:08Z</time></trkpt><trkpt lat="43.586360332772145" lon="11.348002229261287"><ele>523.0</ele><time>2026-03-31T18:12:09Z</time></trkpt><trkpt lat="43.586371341007" lon="11.348149149498761"><ele>524.6</ele><time>2026-03-31T18:12:10Z</time></trkpt><trkpt lat="43.58639410096045" lon="11.348300986782249"><ele>526.1999999999999</ele><time>2026-03-31T18:12:11Z</time></trkpt><trkpt lat="43.58640292624858" lon="11.348457152701092"><ele>527.8</ele><time>2026-03-31T18:12:12Z</time></trkpt><trkpt lat="43.58640743514676" lon="11.348601979953537"><ele>529.4</ele><time>2026-03-31T18:12:13Z</time></trkpt><trkpt lat="43.58641033232557" lon="11.348749320582138"><ele>531.0</ele><time>2026-03-31T18:12:14Z</time></trkpt><trkpt lat="43.58641633202954" lon="11.348895891356964"><ele>532.0</ele><time>2026-03-31T18:12:15Z</time></trkpt><trkpt lat="43.58640113190812" lon="11.349043753790207"><ele>533.0</ele><time>2026-03-31T18:12:16Z</time></trkpt><trkpt lat="43.58640218999199" lon="11.349192979493665"><ele>534.0</ele><time>2026-03-31T18:12:17Z</time></trkpt><trkpt lat="43.58640332658978" lon="11.349340430048098"><ele>535.0</ele><time>2026-03-31T18:12:18Z</time></trkpt><trkpt lat="43.5864070851989" lon="11.349476098219274"><ele>536.0</ele><time>2026-03-31T18:12:19Z</time></trkpt><trkpt lat="43.58642299380361" lon="11.349606852658011"><ele>537.2</ele><time>2026-03-31T18:12:20Z</time></trkpt><trkpt lat="43.58646686440772" lon="11.34973234431961"><ele>538.4000000000001</ele><time>2026-03-31T18:12:21Z</time></trkpt><trkpt lat="43.5865253142495" lon="11.349857701572212"><ele>539.6</ele><time>2026-03-31T18:12:22Z</time></trkpt><trkpt lat="43.586582358116324" lon="11.349983523781052"><ele>540.8000000000001</ele><time>2026-03-31T18:12:23Z</time></trkpt><trkpt lat="43.5866320132999" lon="11.35011013874601"><ele>542.0</ele><time>2026-03-31T18:12:24Z</time></trkpt><trkpt lat="43.58667502252746" lon="11.350225275272965"><ele>542.0</ele><time>2026-03-31T18:12:25Z</time></trkpt><trkpt lat="43.5867142096608" lon="11.350349703316205"><ele>542.0</ele><time>2026-03-31T18:12:26Z</time></trkpt><trkpt lat="43.58674345387447" lon="11.350470674840974"><ele>542.0</ele><time>2026-03-31T18:12:27Z</time></trkpt><trkpt lat="43.58676217676221" lon="11.350589499797024"><ele>542.0</ele><time>2026-03-31T18:12:28Z</time></trkpt><trkpt lat="43.58676026709663" lon="11.350699053617564"><ele>542.0</ele><time>2026-03-31T18:12:29Z</time></trkpt><trkpt lat="43.58674379466156" lon="11.350800740202917"><ele>542.0</ele><time>2026-03-31T18:12:30Z</time></trkpt><trkpt lat="43.586678861948705" lon="11.350884670826561"><ele>543.2</ele><time>2026-03-31T18:12:31Z</time></trkpt><trkpt lat="43.58657124342431" lon="11.350909190065305"><ele>544.4000000000001</ele><time>2026-03-31T18:12:32Z</time></trkpt><trkpt lat="43.586493902163106" lon="11.350980401303014"><ele>545.5999999999999</ele><time>2026-03-31T18:12:33Z</time></trkpt><trkpt lat="43.5864240805772" lon="11.351055269434042"><ele>546.8</ele><time>2026-03-31T18:12:34Z</time></trkpt><trkpt lat="43.586362117552696" lon="11.351159868174262"><ele>548.0</ele><time>2026-03-31T18:12:35Z</time></trkpt><trkpt lat="43.586308017847394" lon="11.351268019573872"><ele>548.0</ele><time>2026-03-31T18:12:36Z</time></trkpt><trkpt lat="43.58626604444855" lon="11.35137385989238"><ele>548.0</ele><time>2026-03-31T18:12:37Z</time></trkpt><trkpt lat="43.58623485759137" lon="11.351502680904714"><ele>548.0</ele><time>2026-03-31T18:12:37.999Z</time></trkpt><trkpt lat="43.586195095806865" lon="11.351631217615404"><ele>548.0</ele><time>2026-03-31T18:12:38.999Z</time></trkpt><trkpt lat="43.586171121220595" lon="11.351757666889442"><ele>548.0</ele><time>2026-03-31T18:12:39.999Z</time></trkpt><trkpt lat="43.58615772046837" lon="11.351871226527967"><ele>549.6666666666666</ele><time>2026-03-31T18:12:40.999Z</time></trkpt><trkpt lat="43.58615605039556" lon="11.351976133746007"><ele>551.3333333333333</ele><time>2026-03-31T18:12:41.999Z</time></trkpt><trkpt lat="43.586164415318926" lon="11.352083832297142"><ele>553.0</ele><time>2026-03-31T18:12:42.999Z</time></trkpt><trkpt lat="43.58618829402717" lon="11.352195772772028"><ele>554.6666666666666</ele><time>2026-03-31T18:12:43.999Z</time></trkpt><trkpt lat="43.58623357281055" lon="11.35229108050228"><ele>556.3333333333334</ele><time>2026-03-31T18:12:44.999Z</time></trkpt><trkpt lat="43.58627541495709" lon="11.35239332047727"><ele>558.0</ele><time>2026-03-31T18:12:45.999Z</time></trkpt><trkpt lat="43.58631788682789" lon="11.352499953970028"><ele>558.0</ele><time>2026-03-31T18:12:46.999Z</time></trkpt><trkpt lat="43.58638212266501" lon="11.352583019356933"><ele>558.0</ele><time>2026-03-31T18:12:47.999Z</time></trkpt><trkpt lat="43.586447784243106" lon="11.35266760037496"><ele>558.0</ele><time>2026-03-31T18:12:48.999Z</time></trkpt><trkpt lat="43.58652049772502" lon="11.352759321516572"><ele>558.0</ele><time>2026-03-31T18:12:49.999Z</time></trkpt><trkpt lat="43.58660141519294" lon="11.352858418505845"><ele>558.0</ele><time>2026-03-31T18:12:50.999Z</time></trkpt><trkpt lat="43.58669250658434" lon="11.352969975305465"><ele>557.75</ele><time>2026-03-31T18:12:51.999Z</time></trkpt><trkpt lat="43.58678373793275" lon="11.353081703380571"><ele>557.5</ele><time>2026-03-31T18:12:52.999Z</time></trkpt><trkpt lat="43.586866374576424" lon="11.353178477776181"><ele>557.25</ele><time>2026-03-31T18:12:53.999Z</time></trkpt><trkpt lat="43.58695358678779" lon="11.353279403414424"><ele>557.0</ele><time>2026-03-31T18:12:54.999Z</time></trkpt><trkpt lat="43.58704523354747" lon="11.353385216824558"><ele>558.6</ele><time>2026-03-31T18:12:55.999Z</time></trkpt><trkpt lat="43.58712227745429" lon="11.353474170069045"><ele>560.2</ele><time>2026-03-31T18:12:56.999Z</time></trkpt><trkpt lat="43.587191494976516" lon="11.353554087152007"><ele>561.8</ele><time>2026-03-31T18:12:57.999Z</time></trkpt><trkpt lat="43.58725979382223" lon="11.35364100602532"><ele>563.4</ele><time>2026-03-31T18:12:58.999Z</time></trkpt><trkpt lat="43.58732395219618" lon="11.353739053645194"><ele>565.0</ele><time>2026-03-31T18:12:59.999Z</time></trkpt><trkpt lat="43.587376626890894" lon="11.353840396334531"><ele>564.6</ele><time>2026-03-31T18:13:00.999Z</time></trkpt><trkpt lat="43.58740369599345" lon="11.353960997100113"><ele>564.2</ele><time>2026-03-31T18:13:01.999Z</time></trkpt><trkpt lat="43.58739216954343" lon="11.35408615138343"><ele>563.8</ele><time>2026-03-31T18:13:02.999Z</time></trkpt><trkpt lat="43.58738850252496" lon="11.354237572548614"><ele>563.4</ele><time>2026-03-31T18:13:03.999Z</time></trkpt><trkpt lat="43.587385122289625" lon="11.354391993975918"><ele>563.0</ele><time>2026-03-31T18:13:04.999Z</time></trkpt><trkpt lat="43.58738193873916" lon="11.354538608506097"><ele>563.0</ele><time>2026-03-31T18:13:05.999Z</time></trkpt><trkpt lat="43.587372854325366" lon="11.354686514247275"><ele>563.0</ele><time>2026-03-31T18:13:06.999Z</time></trkpt><trkpt lat="43.58736108973251" lon="11.354833886361732"><ele>563.0</ele><time>2026-03-31T18:13:07.999Z</time></trkpt><trkpt lat="43.58735005744038" lon="11.354967203508593"><ele>563.0</ele><time>2026-03-31T18:13:08.999Z</time></trkpt><trkpt lat="43.58731899255029" lon="11.355085078522308"><ele>563.0</ele><time>2026-03-31T18:13:09.999Z</time></trkpt><trkpt lat="43.58726738494929" lon="11.355181479843912"><ele>562.8</ele><time>2026-03-31T18:13:10.999Z</time></trkpt><trkpt lat="43.58721423725608" lon="11.355289912540968"><ele>562.5999999999999</ele><time>2026-03-31T18:13:11.999Z</time></trkpt><trkpt lat="43.587123075312824" lon="11.355354976513103"><ele>562.4000000000001</ele><time>2026-03-31T18:13:12.999Z</time></trkpt><trkpt lat="43.587047760476956" lon="11.35543831870238"><ele>562.2</ele><time>2026-03-31T18:13:13.999Z</time></trkpt><trkpt lat="43.5869719435065" lon="11.355528099343713"><ele>562.0</ele><time>2026-03-31T18:13:14.999Z</time></trkpt><trkpt lat="43.58690003123734" lon="11.3556281093809"><ele>563.2</ele><time>2026-03-31T18:13:15.999Z</time></trkpt><trkpt lat="43.58682470765195" lon="11.355729413475515"><ele>564.4000000000001</ele><time>2026-03-31T18:13:16.999Z</time></trkpt><trkpt lat="43.58675894057202" lon="11.355850228092484"><ele>565.5999999999999</ele><time>2026-03-31T18:13:17.999Z</time></trkpt><trkpt lat="43.58671458304659" lon="11.355990198593522"><ele>566.8</ele><time>2026-03-31T18:13:18.999Z</time></trkpt><trkpt lat="43.58666033325176" lon="11.356117328968129"><ele>568.0</ele><time>2026-03-31T18:13:19.999Z</time></trkpt><trkpt lat="43.586588436506226" lon="11.356206546324747"><ele>568.0</ele><time>2026-03-31T18:13:20.999Z</time></trkpt><trkpt lat="43.586519980515604" lon="11.356303129232801"><ele>568.0</ele><time>2026-03-31T18:13:21.999Z</time></trkpt><trkpt lat="43.58644413781827" lon="11.35639749047857"><ele>568.0</ele><time>2026-03-31T18:13:22.999Z</time></trkpt><trkpt lat="43.58636438186888" lon="11.356496893312965"><ele>568.0</ele><time>2026-03-31T18:13:23.999Z</time></trkpt><trkpt lat="43.586281920390654" lon="11.356599668161632"><ele>568.0</ele><time>2026-03-31T18:13:24.999Z</time></trkpt><trkpt lat="43.58620306200695" lon="11.356697952361285"><ele>568.6</ele><time>2026-03-31T18:13:25.999Z</time></trkpt><trkpt lat="43.58613542289406" lon="11.356798183185305"><ele>569.1999999999999</ele><time>2026-03-31T18:13:26.999Z</time></trkpt><trkpt lat="43.58609042806984" lon="11.356916578177424"><ele>569.8</ele><time>2026-03-31T18:13:27.999Z</time></trkpt><trkpt lat="43.58605487988772" lon="11.357049918334011"><ele>570.4</ele><time>2026-03-31T18:13:28.999Z</time></trkpt><trkpt lat="43.58602611470529" lon="11.35718190319769"><ele>571.0</ele><time>2026-03-31T18:13:29.999Z</time></trkpt><trkpt lat="43.585996527408426" lon="11.357314599266097"><ele>572.0</ele><time>2026-03-31T18:13:30.999Z</time></trkpt><trkpt lat="43.58598206155255" lon="11.35745049390941"><ele>573.0</ele><time>2026-03-31T18:13:31.999Z</time></trkpt><trkpt lat="43.585935460878865" lon="11.357581202626267"><ele>574.0</ele><time>2026-03-31T18:13:32.999Z</time></trkpt><trkpt lat="43.58590348604248" lon="11.357718036127766"><ele>575.0</ele><time>2026-03-31T18:13:33.999Z</time></trkpt><trkpt lat="43.58587281450832" lon="11.35785081677427"><ele>576.0</ele><time>2026-03-31T18:13:34.999Z</time></trkpt><trkpt lat="43.58584283458961" lon="11.357987924919538"><ele>576.4</ele><time>2026-03-31T18:13:35.999Z</time></trkpt><trkpt lat="43.58581163277302" lon="11.358121552486516"><ele>576.8</ele><time>2026-03-31T18:13:36.999Z</time></trkpt><trkpt lat="43.58577510339928" lon="11.35826483464874"><ele>577.1999999999999</ele><time>2026-03-31T18:13:37.999Z</time></trkpt><trkpt lat="43.58574763549765" lon="11.358399277192557"><ele>577.6</ele><time>2026-03-31T18:13:38.999Z</time></trkpt><trkpt lat="43.58573447745988" lon="11.358523309230884"><ele>578.0</ele><time>2026-03-31T18:13:39.999Z</time></trkpt><trkpt lat="43.58574510605296" lon="11.358654259203231"><ele>578.0</ele><time>2026-03-31T18:13:40.999Z</time></trkpt><trkpt lat="43.5857904407625" lon="11.358800037909168"><ele>578.0</ele><time>2026-03-31T18:13:41.999Z</time></trkpt><trkpt lat="43.58584404193782" lon="11.358926823416331"><ele>578.0</ele><time>2026-03-31T18:13:42.999Z</time></trkpt><trkpt lat="43.58589260026802" lon="11.359039689702634"><ele>578.0</ele><time>2026-03-31T18:13:43.999Z</time></trkpt><trkpt lat="43.58594634581281" lon="11.359179581847346"><ele>578.0</ele><time>2026-03-31T18:13:44.999Z</time></trkpt><trkpt lat="43.58599867242866" lon="11.359315780814205"><ele>578.0</ele><time>2026-03-31T18:13:45.999Z</time></trkpt><trkpt lat="43.58605266582617" lon="11.359434737754906"><ele>578.0</ele><time>2026-03-31T18:13:46.999Z</time></trkpt><trkpt lat="43.586103562783265" lon="11.359527990785008"><ele>578.0</ele><time>2026-03-31T18:13:47.999Z</time></trkpt><trkpt lat="43.58615899380752" lon="11.359613838348343"><ele>578.0</ele><time>2026-03-31T18:13:48.999Z</time></trkpt><trkpt lat="43.58620079306722" lon="11.359704542313544"><ele>578.0</ele><time>2026-03-31T18:13:49.999Z</time></trkpt><trkpt lat="43.58621656615784" lon="11.359816455399875"><ele>578.0</ele><time>2026-03-31T18:13:50.999Z</time></trkpt><trkpt lat="43.58621359083359" lon="11.359930846993457"><ele>578.0</ele><time>2026-03-31T18:13:52Z</time></trkpt><trkpt lat="43.58619344432112" lon="11.36007451278342"><ele>578.0</ele><time>2026-03-31T18:13:53Z</time></trkpt><trkpt lat="43.586166011437115" lon="11.3602258714029"><ele>578.0</ele><time>2026-03-31T18:13:54Z</time></trkpt><trkpt lat="43.58613637063362" lon="11.360377437086377"><ele>578.0</ele><time>2026-03-31T18:13:55Z</time></trkpt><trkpt lat="43.586106682478786" lon="11.3605189115401"><ele>578.0</ele><time>2026-03-31T18:13:56Z</time></trkpt><trkpt lat="43.586079417258695" lon="11.36066476380761"><ele>578.75</ele><time>2026-03-31T18:13:57Z</time></trkpt><trkpt lat="43.58605507841495" lon="11.360813980955433"><ele>579.5</ele><time>2026-03-31T18:13:58Z</time></trkpt><trkpt lat="43.5860357652829" lon="11.360968783954052"><ele>580.25</ele><time>2026-03-31T18:13:59Z</time></trkpt><trkpt lat="43.58602816722307" lon="11.36112267010966"><ele>581.0</ele><time>2026-03-31T18:14:00Z</time></trkpt><trkpt lat="43.58601870660531" lon="11.361279632413483"><ele>582.4</ele><time>2026-03-31T18:14:01Z</time></trkpt><trkpt lat="43.58600747959358" lon="11.36143283303128"><ele>583.8</ele><time>2026-03-31T18:14:02Z</time></trkpt><trkpt lat="43.58599310707675" lon="11.36158004913524"><ele>585.1999999999999</ele><time>2026-03-31T18:14:03Z</time></trkpt><trkpt lat="43.58596771982695" lon="11.36172550867477"><ele>586.6</ele><time>2026-03-31T18:14:04Z</time></trkpt><trkpt lat="43.58593687723559" lon="11.361872241295625"><ele>588.0</ele><time>2026-03-31T18:14:05Z</time></trkpt><trkpt lat="43.58590722786138" lon="11.36201923705426"><ele>588.0</ele><time>2026-03-31T18:14:06Z</time></trkpt><trkpt lat="43.5858777420976" lon="11.36216609703935"><ele>588.0</ele><time>2026-03-31T18:14:07Z</time></trkpt><trkpt lat="43.585849438298624" lon="11.362315533280816"><ele>588.0</ele><time>2026-03-31T18:14:08Z</time></trkpt><trkpt lat="43.585823698907674" lon="11.362462425830575"><ele>588.0</ele><time>2026-03-31T18:14:09Z</time></trkpt><trkpt lat="43.58579973558553" lon="11.362613832749064"><ele>588.0</ele><time>2026-03-31T18:14:10Z</time></trkpt><trkpt lat="43.58577455159396" lon="11.362770059793093"><ele>589.6</ele><time>2026-03-31T18:14:11Z</time></trkpt><trkpt lat="43.58574971596346" lon="11.362926970052431"><ele>591.1999999999999</ele><time>2026-03-31T18:14:12Z</time></trkpt><trkpt lat="43.58572620851098" lon="11.363083237393939"><ele>592.8</ele><time>2026-03-31T18:14:13Z</time></trkpt><trkpt lat="43.585701704814994" lon="11.363227590260784"><ele>594.4</ele><time>2026-03-31T18:14:14Z</time></trkpt><trkpt lat="43.585676173187686" lon="11.363365888849668"><ele>596.0</ele><time>2026-03-31T18:14:15Z</time></trkpt><trkpt lat="43.58564727928088" lon="11.363491671834831"><ele>598.8</ele><time>2026-03-31T18:14:16Z</time></trkpt><trkpt lat="43.5855613804689" lon="11.363563111841973"><ele>601.6</ele><time>2026-03-31T18:14:17Z</time></trkpt><trkpt lat="43.5854914270033" lon="11.363665452779948"><ele>604.4</ele><time>2026-03-31T18:14:18Z</time></trkpt><trkpt lat="43.58541684530319" lon="11.363774564855431"><ele>607.2</ele><time>2026-03-31T18:14:19Z</time></trkpt><trkpt lat="43.58534382443594" lon="11.363881393534303"><ele>610.0</ele><time>2026-03-31T18:14:20Z</time></trkpt><trkpt lat="43.58528235374814" lon="11.363966917598036"><ele>610.5</ele><time>2026-03-31T18:14:21Z</time></trkpt><trkpt lat="43.58523633252599" lon="11.36405353074882"><ele>611.0</ele><time>2026-03-31T18:14:22Z</time></trkpt><trkpt lat="43.58522551380736" lon="11.364178263837761"><ele>611.5</ele><time>2026-03-31T18:14:23Z</time></trkpt><trkpt lat="43.58521587609773" lon="11.364298997236506"><ele>612.0</ele><time>2026-03-31T18:14:24Z</time></trkpt><trkpt lat="43.58522687016385" lon="11.36441298172881"><ele>612.5</ele><time>2026-03-31T18:14:25Z</time></trkpt><trkpt lat="43.585257156368904" lon="11.364525538416748"><ele>613.0</ele><time>2026-03-31T18:14:26Z</time></trkpt><trkpt lat="43.58530242046371" lon="11.364636132389514"><ele>613.6666666666667</ele><time>2026-03-31T18:14:27Z</time></trkpt><trkpt lat="43.58533000288574" lon="11.364753412837942"><ele>614.3333333333334</ele><time>2026-03-31T18:14:28Z</time></trkpt><trkpt lat="43.585365250326824" lon="11.364857241218578"><ele>615.0</ele><time>2026-03-31T18:14:29Z</time></trkpt><trkpt lat="43.58538924684271" lon="11.364965269866856"><ele>615.6666666666666</ele><time>2026-03-31T18:14:30Z</time></trkpt><trkpt lat="43.585404141113635" lon="11.365087313400666"><ele>616.3333333333333</ele><time>2026-03-31T18:14:31Z</time></trkpt><trkpt lat="43.58541353383329" lon="11.365222239107867"><ele>617.0</ele><time>2026-03-31T18:14:32Z</time></trkpt><trkpt lat="43.585419650593394" lon="11.36536612089923"><ele>619.0</ele><time>2026-03-31T18:14:33Z</time></trkpt><trkpt lat="43.58541788724121" lon="11.365513342777419"><ele>621.0</ele><time>2026-03-31T18:14:34Z</time></trkpt><trkpt lat="43.585418769332954" lon="11.365663027967642"><ele>623.0</ele><time>2026-03-31T18:14:35Z</time></trkpt><trkpt lat="43.5854193680274" lon="11.365815306308749"><ele>625.0</ele><time>2026-03-31T18:14:36Z</time></trkpt><trkpt lat="43.58541602163491" lon="11.365964387682881"><ele>627.0</ele><time>2026-03-31T18:14:37Z</time></trkpt><trkpt lat="43.58540627850098" lon="11.366095596759656"><ele>627.0</ele><time>2026-03-31T18:14:38Z</time></trkpt><trkpt lat="43.58539831883643" lon="11.366202581538142"><ele>627.0</ele><time>2026-03-31T18:14:39Z</time></trkpt><trkpt lat="43.585393182332574" lon="11.366298890968679"><ele>627.0</ele><time>2026-03-31T18:14:41Z</time></trkpt><trkpt lat="43.58556895170919" lon="11.366326091800559"><ele>627.0</ele><time>2026-03-31T18:14:42.999Z</time></trkpt><trkpt lat="43.585653386571465" lon="11.36633995702281"><ele>627.0</ele><time>2026-03-31T18:14:43.999Z</time></trkpt><trkpt lat="43.58575224468642" lon="11.366349019229265"><ele>627.0</ele><time>2026-03-31T18:14:44.999Z</time></trkpt><trkpt lat="43.58585470674551" lon="11.366358411798302"><ele>627.0</ele><time>2026-03-31T18:14:45.999Z</time></trkpt><trkpt lat="43.585967997121436" lon="11.366368796990734"><ele>627.0</ele><time>2026-03-31T18:14:46.999Z</time></trkpt><trkpt lat="43.586077446358686" lon="11.366378830070165"><ele>627.0</ele><time>2026-03-31T18:14:47.999Z</time></trkpt><trkpt lat="43.586168696164606" lon="11.366387194829198"><ele>627.0</ele><time>2026-03-31T18:14:48.999Z</time></trkpt><trkpt lat="43.58626159351236" lon="11.366396418501607"><ele>627.0</ele><time>2026-03-31T18:14:49.999Z</time></trkpt><trkpt lat="43.5863519302005" lon="11.366405716737008"><ele>627.0</ele><time>2026-03-31T18:14:50.999Z</time></trkpt><trkpt lat="43.58644324592866" lon="11.366415115739795"><ele>627.0</ele><time>2026-03-31T18:14:51.999Z</time></trkpt><trkpt lat="43.58655149858062" lon="11.366403663106418"><ele>627.0</ele><time>2026-03-31T18:14:52.999Z</time></trkpt><trkpt lat="43.58663686834624" lon="11.366432334129618"><ele>627.0</ele><time>2026-03-31T18:14:53.999Z</time></trkpt><trkpt lat="43.5867184370088" lon="11.366437430556346"><ele>627.0</ele><time>2026-03-31T18:14:54.999Z</time></trkpt><trkpt lat="43.58680396720819" lon="11.366439428599598"><ele>627.0</ele><time>2026-03-31T18:14:55.999Z</time></trkpt><trkpt lat="43.58689995890373" lon="11.366438158124183"><ele>627.0</ele><time>2026-03-31T18:14:56.999Z</time></trkpt><trkpt lat="43.58700850989695" lon="11.366436721423437"><ele>627.0</ele><time>2026-03-31T18:14:57.999Z</time></trkpt><trkpt lat="43.58712738997531" lon="11.366424800829586"><ele>627.0</ele><time>2026-03-31T18:14:58.999Z</time></trkpt><trkpt lat="43.58723588103856" lon="11.366415704793456"><ele>626.3333333333334</ele><time>2026-03-31T18:14:59.999Z</time></trkpt><trkpt lat="43.58733530160537" lon="11.366410588683632"><ele>625.6666666666666</ele><time>2026-03-31T18:15:00.999Z</time></trkpt><trkpt lat="43.587431774193576" lon="11.366411915112886"><ele>625.0</ele><time>2026-03-31T18:15:01.999Z</time></trkpt><trkpt lat="43.58751677065068" lon="11.366413673964908"><ele>624.3333333333333</ele><time>2026-03-31T18:15:02.999Z</time></trkpt><trkpt lat="43.587596795665455" lon="11.366417593966018"><ele>623.6666666666666</ele><time>2026-03-31T18:15:03.999Z</time></trkpt><trkpt lat="43.58767977139235" lon="11.366409014018359"><ele>623.0</ele><time>2026-03-31T18:15:04.999Z</time></trkpt><trkpt lat="43.587757667694525" lon="11.366430783038195"><ele>622.4</ele><time>2026-03-31T18:15:05.999Z</time></trkpt><trkpt lat="43.58784403986567" lon="11.366442253982676"><ele>621.8</ele><time>2026-03-31T18:15:06.999Z</time></trkpt><trkpt lat="43.587941498574715" lon="11.366438568721229"><ele>621.2</ele><time>2026-03-31T18:15:07.999Z</time></trkpt><trkpt lat="43.58803447229869" lon="11.366462728425622"><ele>620.6</ele><time>2026-03-31T18:15:08.999Z</time></trkpt><trkpt lat="43.5881220282751" lon="11.366487493177756"><ele>620.0</ele><time>2026-03-31T18:15:09.999Z</time></trkpt><trkpt lat="43.58821347948133" lon="11.366511143286148"><ele>620.0</ele><time>2026-03-31T18:15:10.999Z</time></trkpt><trkpt lat="43.58830437218911" lon="11.366517353824733"><ele>620.0</ele><time>2026-03-31T18:15:11.999Z</time></trkpt><trkpt lat="43.58839045585916" lon="11.366536093573037"><ele>620.0</ele><time>2026-03-31T18:15:12.999Z</time></trkpt><trkpt lat="43.588470140099574" lon="11.36654765815664"><ele>620.0</ele><time>2026-03-31T18:15:13.999Z</time></trkpt><trkpt lat="43.58855219637247" lon="11.36654727947958"><ele>620.0</ele><time>2026-03-31T18:15:14.999Z</time></trkpt><trkpt lat="43.588630902721306" lon="11.366529217037288"><ele>620.0</ele><time>2026-03-31T18:15:15.999Z</time></trkpt><trkpt lat="43.58871536820744" lon="11.3664855018946"><ele>619.6666666666666</ele><time>2026-03-31T18:15:16.999Z</time></trkpt><trkpt lat="43.58878783303769" lon="11.36645614958301"><ele>619.3333333333333</ele><time>2026-03-31T18:15:17.999Z</time></trkpt><trkpt lat="43.588847303300746" lon="11.366488541092957"><ele>619.0</ele><time>2026-03-31T18:15:18.999Z</time></trkpt><trkpt lat="43.58889697128861" lon="11.366542365549824"><ele>618.6666666666666</ele><time>2026-03-31T18:15:19.999Z</time></trkpt><trkpt lat="43.588954700989305" lon="11.366589900441074"><ele>618.3333333333334</ele><time>2026-03-31T18:15:20.999Z</time></trkpt><trkpt lat="43.58906996958361" lon="11.366678821363044"><ele>618.0</ele><time>2026-03-31T18:15:22.999Z</time></trkpt><trkpt lat="43.5890542488398" lon="11.366777590713198"><ele>618.0</ele><time>2026-03-31T18:15:24.999Z</time></trkpt><trkpt lat="43.58911606221688" lon="11.36682904625761"><ele>618.0</ele><time>2026-03-31T18:15:26.999Z</time></trkpt><trkpt lat="43.58916264577389" lon="11.366889311145597"><ele>618.0</ele><time>2026-03-31T18:15:28.999Z</time></trkpt><trkpt lat="43.589422834073176" lon="11.366680100899236"><ele>618.0</ele><time>2026-03-31T18:15:29.999Z</time></trkpt><trkpt lat="43.589459973451106" lon="11.366773839813103"><ele>616.6</ele><time>2026-03-31T18:15:31.999Z</time></trkpt><trkpt lat="43.58951166807651" lon="11.366835960207034"><ele>615.1999999999999</ele><time>2026-03-31T18:15:33.999Z</time></trkpt><trkpt lat="43.58961278656761" lon="11.366868185679044"><ele>613.8</ele><time>2026-03-31T18:15:35.999Z</time></trkpt><trkpt lat="43.58969386906545" lon="11.366946868399323"><ele>612.4</ele><time>2026-03-31T18:15:37.999Z</time></trkpt><trkpt lat="43.589809812780764" lon="11.367022353869894"><ele>611.0</ele><time>2026-03-31T18:15:39.999Z</time></trkpt><trkpt lat="43.58991295245671" lon="11.367019355989191"><ele>611.0</ele><time>2026-03-31T18:15:41.999Z</time></trkpt><trkpt lat="43.590008242030734" lon="11.366944004503688"><ele>611.0</ele><time>2026-03-31T18:15:43.999Z</time></trkpt><trkpt lat="43.59008528475371" lon="11.366900874151108"><ele>611.0</ele><time>2026-03-31T18:15:45.999Z</time></trkpt><trkpt lat="43.59016591087867" lon="11.366858101834493"><ele>611.0</ele><time>2026-03-31T18:15:47.999Z</time></trkpt><trkpt lat="43.590260867191105" lon="11.366772211701178"><ele>611.0</ele><time>2026-03-31T18:15:49.999Z</time></trkpt><trkpt lat="43.5903743418756" lon="11.366699125001752"><ele>608.8333333333333</ele><time>2026-03-31T18:15:51.999Z</time></trkpt><trkpt lat="43.59042786966124" lon="11.366596522624205"><ele>606.6666666666666</ele><time>2026-03-31T18:15:52.999Z</time></trkpt><trkpt lat="43.59048793055791" lon="11.366489744345035"><ele>604.5</ele><time>2026-03-31T18:15:53.999Z</time></trkpt><trkpt lat="43.590536681992425" lon="11.366406755370042"><ele>602.3333333333334</ele><time>2026-03-31T18:15:54.999Z</time></trkpt><trkpt lat="43.590562797839425" lon="11.366325712511"><ele>600.1666666666667</ele><time>2026-03-31T18:15:55.999Z</time></trkpt><trkpt lat="43.5905874122796" lon="11.36621290715863"><ele>598.0</ele><time>2026-03-31T18:15:58Z</time></trkpt><trkpt lat="43.590652793998025" lon="11.36621459304561"><ele>598.0</ele><time>2026-03-31T18:16:00Z</time></trkpt><trkpt lat="43.590748515711965" lon="11.36628151797191"><ele>598.0</ele><time>2026-03-31T18:16:02Z</time></trkpt><trkpt lat="43.590812458105454" lon="11.366364144112355"><ele>598.0</ele><time>2026-03-31T18:16:04Z</time></trkpt><trkpt lat="43.59087646814824" lon="11.366465562977286"><ele>598.0</ele><time>2026-03-31T18:16:07Z</time></trkpt><trkpt lat="43.59095607547073" lon="11.36652152239748"><ele>598.0</ele><time>2026-03-31T18:16:09Z</time></trkpt><trkpt lat="43.59105229839215" lon="11.366602949434903"><ele>598.0</ele><time>2026-03-31T18:16:11Z</time></trkpt><trkpt lat="43.591042527987284" lon="11.366750170965622"><ele>598.0</ele><time>2026-03-31T18:16:13Z</time></trkpt><trkpt lat="43.59101857507806" lon="11.3668398075504"><ele>598.0</ele><time>2026-03-31T18:16:14Z</time></trkpt><trkpt lat="43.591043849866765" lon="11.367009520260048"><ele>598.0</ele><time>2026-03-31T18:16:16Z</time></trkpt><trkpt lat="43.59113087954312" lon="11.367076013918718"><ele>598.0</ele><time>2026-03-31T18:16:18Z</time></trkpt><trkpt lat="43.591187961828325" lon="11.367026106633869"><ele>598.6666666666667</ele><time>2026-03-31T18:16:19Z</time></trkpt><trkpt lat="43.59124664859906" lon="11.366958105498306"><ele>599.3333333333334</ele><time>2026-03-31T18:16:20Z</time></trkpt><trkpt lat="43.591309176510116" lon="11.36693011183291"><ele>600.0</ele><time>2026-03-31T18:16:21Z</time></trkpt><trkpt lat="43.59140224543914" lon="11.366883088123958"><ele>600.6666666666666</ele><time>2026-03-31T18:16:23Z</time></trkpt><trkpt lat="43.59146088640255" lon="11.366848723591549"><ele>601.3333333333333</ele><time>2026-03-31T18:16:24Z</time></trkpt><trkpt lat="43.59157037161101" lon="11.366779266186589"><ele>602.0</ele><time>2026-03-31T18:16:26Z</time></trkpt><trkpt lat="43.59163703268664" lon="11.366645039477131"><ele>602.0</ele><time>2026-03-31T18:16:28Z</time></trkpt><trkpt lat="43.59171824727457" lon="11.366583715819202"><ele>602.0</ele><time>2026-03-31T18:16:30Z</time></trkpt><trkpt lat="43.59179146118994" lon="11.366558081100395"><ele>602.0</ele><time>2026-03-31T18:16:35Z</time></trkpt><trkpt lat="43.59181662938486" lon="11.366459367744561"><ele>602.0</ele><time>2026-03-31T18:16:38Z</time></trkpt><trkpt lat="43.59193215877245" lon="11.366390152075082"><ele>602.0</ele><time>2026-03-31T18:16:40Z</time></trkpt><trkpt lat="43.5920100056811" lon="11.36631370691657"><ele>602.4</ele><time>2026-03-31T18:16:42Z</time></trkpt><trkpt lat="43.592077265890055" lon="11.36626385815372"><ele>602.8000000000001</ele><time>2026-03-31T18:16:45Z</time></trkpt><trkpt lat="43.59215170452938" lon="11.366254676418535"><ele>603.2</ele><time>2026-03-31T18:16:55.999Z</time></trkpt><trkpt lat="43.59226459922595" lon="11.366274215087287"><ele>603.6</ele><time>2026-03-31T18:16:58.999Z</time></trkpt><trkpt lat="43.59237426578245" lon="11.366281825828079"><ele>604.0</ele><time>2026-03-31T18:17:00.999Z</time></trkpt><trkpt lat="43.59248825669634" lon="11.366281517399164"><ele>604.0</ele><time>2026-03-31T18:17:02.999Z</time></trkpt><trkpt lat="43.592603889154674" lon="11.366240463381864"><ele>604.0</ele><time>2026-03-31T18:17:04.999Z</time></trkpt><trkpt lat="43.59267449158748" lon="11.36623313396986"><ele>604.0</ele><time>2026-03-31T18:17:05.999Z</time></trkpt><trkpt lat="43.59274535154928" lon="11.366225834476989"><ele>604.0</ele><time>2026-03-31T18:17:06.999Z</time></trkpt><trkpt lat="43.59283231121725" lon="11.366213358357157"><ele>604.0</ele><time>2026-03-31T18:17:07.999Z</time></trkpt><trkpt lat="43.592924656535004" lon="11.36618370719394"><ele>604.0</ele><time>2026-03-31T18:17:08.999Z</time></trkpt><trkpt lat="43.59300886972218" lon="11.366141260690963"><ele>604.1666666666667</ele><time>2026-03-31T18:17:09.999Z</time></trkpt><trkpt lat="43.59308079090539" lon="11.366153519562475"><ele>604.3333333333334</ele><time>2026-03-31T18:17:10.999Z</time></trkpt><trkpt lat="43.59312743942536" lon="11.366230252620543"><ele>604.5</ele><time>2026-03-31T18:17:11.999Z</time></trkpt><trkpt lat="43.593206741063696" lon="11.366345025276605"><ele>604.6666666666666</ele><time>2026-03-31T18:17:13.999Z</time></trkpt><trkpt lat="43.59328619678955" lon="11.36644689291612"><ele>604.8333333333333</ele><time>2026-03-31T18:17:15.999Z</time></trkpt><trkpt lat="43.59332720652788" lon="11.366513072877853"><ele>605.0</ele><time>2026-03-31T18:17:16.999Z</time></trkpt><trkpt lat="43.59340647333309" lon="11.366639454185993"><ele>605.0</ele><time>2026-03-31T18:17:18.999Z</time></trkpt><trkpt lat="43.59349907521792" lon="11.366692263799337"><ele>605.0</ele><time>2026-03-31T18:17:20.999Z</time></trkpt><trkpt lat="43.59358796782621" lon="11.366608228250858"><ele>605.0</ele><time>2026-03-31T18:17:22.999Z</time></trkpt><trkpt lat="43.59365104857417" lon="11.36651271156661"><ele>605.0</ele><time>2026-03-31T18:17:24.999Z</time></trkpt><trkpt lat="43.59368990778832" lon="11.366429011273018"><ele>605.0</ele><time>2026-03-31T18:17:26.999Z</time></trkpt><trkpt lat="43.59372649789719" lon="11.366350570036186"><ele>605.0</ele><time>2026-03-31T18:17:28.999Z</time></trkpt><trkpt lat="43.59376428558967" lon="11.366272186747619"><ele>601.8</ele><time>2026-03-31T18:17:30.999Z</time></trkpt><trkpt lat="43.593803472375505" lon="11.366196021447758"><ele>598.6</ele><time>2026-03-31T18:17:32.999Z</time></trkpt><trkpt lat="43.5938105504588" lon="11.366057777982316"><ele>595.4</ele><time>2026-03-31T18:17:35.999Z</time></trkpt><trkpt lat="43.59388373732598" lon="11.366036730658235"><ele>592.2</ele><time>2026-03-31T18:17:37.999Z</time></trkpt><trkpt lat="43.59397198254999" lon="11.366103200905494"><ele>589.0</ele><time>2026-03-31T18:17:39.999Z</time></trkpt><trkpt lat="43.59408980239808" lon="11.36608474314896"><ele>589.0</ele><time>2026-03-31T18:17:41.999Z</time></trkpt><trkpt lat="43.594199413667404" lon="11.36599094765559"><ele>589.0</ele><time>2026-03-31T18:17:43.999Z</time></trkpt><trkpt lat="43.594258678779426" lon="11.365927994760343"><ele>589.0</ele><time>2026-03-31T18:17:44.999Z</time></trkpt><trkpt lat="43.5943133728223" lon="11.365867923465231"><ele>589.0</ele><time>2026-03-31T18:17:45.999Z</time></trkpt><trkpt lat="43.59437787406628" lon="11.36581602952838"><ele>589.0</ele><time>2026-03-31T18:17:46.999Z</time></trkpt><trkpt lat="43.59445379522951" lon="11.365799249274145"><ele>589.0</ele><time>2026-03-31T18:17:47.999Z</time></trkpt><trkpt lat="43.594526909575414" lon="11.365808435376575"><ele>587.1666666666667</ele><time>2026-03-31T18:17:48.999Z</time></trkpt><trkpt lat="43.59459127456841" lon="11.365840923065381"><ele>585.3333333333334</ele><time>2026-03-31T18:17:49.999Z</time></trkpt><trkpt lat="43.5946649199037" lon="11.365884918747836"><ele>583.5</ele><time>2026-03-31T18:17:50.999Z</time></trkpt><trkpt lat="43.594758753627296" lon="11.365929610569136"><ele>581.6666666666666</ele><time>2026-03-31T18:17:51.999Z</time></trkpt><trkpt lat="43.59484396445119" lon="11.365966919996735"><ele>579.8333333333333</ele><time>2026-03-31T18:17:52.999Z</time></trkpt><trkpt lat="43.59492647986869" lon="11.365995613041818"><ele>578.0</ele><time>2026-03-31T18:17:53.999Z</time></trkpt><trkpt lat="43.59499868592988" lon="11.366004851786826"><ele>578.0</ele><time>2026-03-31T18:17:54.999Z</time></trkpt><trkpt lat="43.59507467991704" lon="11.365991687098381"><ele>578.0</ele><time>2026-03-31T18:17:55.999Z</time></trkpt><trkpt lat="43.59514207637034" lon="11.365975930288235"><ele>578.0</ele><time>2026-03-31T18:17:56.999Z</time></trkpt><trkpt lat="43.59521697177993" lon="11.365937822326975"><ele>578.0</ele><time>2026-03-31T18:17:57.999Z</time></trkpt><trkpt lat="43.595289409125996" lon="11.365888577641547"><ele>578.0</ele><time>2026-03-31T18:17:58.999Z</time></trkpt><trkpt lat="43.595358697786516" lon="11.365843706355019"><ele>578.0</ele><time>2026-03-31T18:17:59.999Z</time></trkpt><trkpt lat="43.595435081316246" lon="11.365801009492893"><ele>578.0</ele><time>2026-03-31T18:18:00.999Z</time></trkpt><trkpt lat="43.59550560787251" lon="11.365756467664989"><ele>578.0</ele><time>2026-03-31T18:18:01.999Z</time></trkpt><trkpt lat="43.59557779156488" lon="11.365734338606098"><ele>578.0</ele><time>2026-03-31T18:18:02.999Z</time></trkpt><trkpt lat="43.59562238727047" lon="11.365639098511489"><ele>578.0</ele><time>2026-03-31T18:18:04Z</time></trkpt><trkpt lat="43.59565986224764" lon="11.365565771887855"><ele>578.0</ele><time>2026-03-31T18:18:05Z</time></trkpt><trkpt lat="43.595712967851625" lon="11.365423580785968"><ele>578.0</ele><time>2026-03-31T18:18:07Z</time></trkpt><trkpt lat="43.59576289068509" lon="11.365282144776996"><ele>576.8</ele><time>2026-03-31T18:18:09Z</time></trkpt><trkpt lat="43.59577664950777" lon="11.3651464219633"><ele>575.5999999999999</ele><time>2026-03-31T18:18:11Z</time></trkpt><trkpt lat="43.59576053407273" lon="11.36498895579748"><ele>574.4000000000001</ele><time>2026-03-31T18:18:13Z</time></trkpt><trkpt lat="43.59572692614808" lon="11.364865876502128"><ele>573.2</ele><time>2026-03-31T18:18:15Z</time></trkpt><trkpt lat="43.59571036478942" lon="11.36476720366413"><ele>572.0</ele><time>2026-03-31T18:18:16Z</time></trkpt><trkpt lat="43.595698879088154" lon="11.364665655525588"><ele>570.7142857142857</ele><time>2026-03-31T18:18:17Z</time></trkpt><trkpt lat="43.59568578102832" lon="11.364570753135615"><ele>569.4285714285714</ele><time>2026-03-31T18:18:18Z</time></trkpt><trkpt lat="43.59567707098633" lon="11.364471519201539"><ele>568.1428571428571</ele><time>2026-03-31T18:18:19Z</time></trkpt><trkpt lat="43.59567703429829" lon="11.364377862772221"><ele>566.8571428571429</ele><time>2026-03-31T18:18:20Z</time></trkpt><trkpt lat="43.59569762264738" lon="11.364284738109623"><ele>565.5714285714286</ele><time>2026-03-31T18:18:21Z</time></trkpt><trkpt lat="43.59570700849261" lon="11.364192546490363"><ele>564.2857142857142</ele><time>2026-03-31T18:18:22Z</time></trkpt><trkpt lat="43.5957105397046" lon="11.364097633136849"><ele>563.0</ele><time>2026-03-31T18:18:23Z</time></trkpt><trkpt lat="43.59572952614603" lon="11.364003317064858"><ele>563.0</ele><time>2026-03-31T18:18:24Z</time></trkpt><trkpt lat="43.59576732213886" lon="11.363913593078493"><ele>563.0</ele><time>2026-03-31T18:18:25Z</time></trkpt><trkpt lat="43.59578121347723" lon="11.3638195788394"><ele>563.0</ele><time>2026-03-31T18:18:26Z</time></trkpt><trkpt lat="43.59582511951785" lon="11.363745442246758"><ele>563.0</ele><time>2026-03-31T18:18:27Z</time></trkpt><trkpt lat="43.595881475325044" lon="11.363682482759126"><ele>563.0</ele><time>2026-03-31T18:18:28Z</time></trkpt><trkpt lat="43.59595474087221" lon="11.363630899077224"><ele>563.0</ele><time>2026-03-31T18:18:29Z</time></trkpt><trkpt lat="43.5960252918272" lon="11.363601506817101"><ele>563.0</ele><time>2026-03-31T18:18:30Z</time></trkpt><trkpt lat="43.596094031045396" lon="11.363571086081953"><ele>560.0</ele><time>2026-03-31T18:18:31Z</time></trkpt><trkpt lat="43.59615878462661" lon="11.363540666017585"><ele>557.0</ele><time>2026-03-31T18:18:32Z</time></trkpt><trkpt lat="43.596281186848096" lon="11.363570314283315"><ele>554.0</ele><time>2026-03-31T18:18:34Z</time></trkpt><trkpt lat="43.596359654979295" lon="11.363580281608892"><ele>551.0</ele><time>2026-03-31T18:18:35Z</time></trkpt><trkpt lat="43.596441295588264" lon="11.363630304971807"><ele>548.0</ele><time>2026-03-31T18:18:36Z</time></trkpt><trkpt lat="43.59653519729602" lon="11.363691231395094"><ele>547.1666666666666</ele><time>2026-03-31T18:18:37Z</time></trkpt><trkpt lat="43.596590636620604" lon="11.363764450478097"><ele>546.3333333333333</ele><time>2026-03-31T18:18:38Z</time></trkpt><trkpt lat="43.59664914212172" lon="11.36382195559249"><ele>545.5</ele><time>2026-03-31T18:18:39Z</time></trkpt><trkpt lat="43.59671676624307" lon="11.36387843510484"><ele>544.6666666666666</ele><time>2026-03-31T18:18:40Z</time></trkpt><trkpt lat="43.59677808525055" lon="11.363925847885763"><ele>543.8333333333334</ele><time>2026-03-31T18:18:41Z</time></trkpt><trkpt lat="43.59690917560543" lon="11.363965220163658"><ele>543.0</ele><time>2026-03-31T18:18:43Z</time></trkpt><trkpt lat="43.59698673087232" lon="11.363948081728672"><ele>542.1999999999999</ele><time>2026-03-31T18:18:44Z</time></trkpt><trkpt lat="43.59707209661019" lon="11.363923979212801"><ele>541.4</ele><time>2026-03-31T18:18:45Z</time></trkpt><trkpt lat="43.59714868196372" lon="11.363897036828964"><ele>540.5999999999999</ele><time>2026-03-31T18:18:46Z</time></trkpt><trkpt lat="43.59724172195728" lon="11.363880606309994"><ele>539.8</ele><time>2026-03-31T18:18:47Z</time></trkpt><trkpt lat="43.59734663269567" lon="11.363818628727435"><ele>539.0</ele><time>2026-03-31T18:18:48Z</time></trkpt><trkpt lat="43.59743299355913" lon="11.36373700223499"><ele>537.8333333333333</ele><time>2026-03-31T18:18:49Z</time></trkpt><trkpt lat="43.5975081608684" lon="11.36369846952575"><ele>536.6666666666666</ele><time>2026-03-31T18:18:49.999Z</time></trkpt><trkpt lat="43.59757687979945" lon="11.363682915411376"><ele>535.5</ele><time>2026-03-31T18:18:50.999Z</time></trkpt><trkpt lat="43.597651081890604" lon="11.363725757702294"><ele>534.3333333333334</ele><time>2026-03-31T18:18:51.999Z</time></trkpt><trkpt lat="43.59773051211758" lon="11.36373650203082"><ele>533.1666666666667</ele><time>2026-03-31T18:18:52.999Z</time></trkpt><trkpt lat="43.597819768208424" lon="11.3637763831447"><ele>532.0</ele><time>2026-03-31T18:18:53.999Z</time></trkpt><trkpt lat="43.59789165379457" lon="11.363799970684338"><ele>532.0</ele><time>2026-03-31T18:18:54.999Z</time></trkpt><trkpt lat="43.5979577292092" lon="11.363797805772563"><ele>532.0</ele><time>2026-03-31T18:18:55.999Z</time></trkpt><trkpt lat="43.59801919375714" lon="11.363832239510014"><ele>532.0</ele><time>2026-03-31T18:18:56.999Z</time></trkpt><trkpt lat="43.59810561037358" lon="11.363851619533909"><ele>532.0</ele><time>2026-03-31T18:18:58.999Z</time></trkpt><trkpt lat="43.59819455036421" lon="11.363898995332264"><ele>532.0</ele><time>2026-03-31T18:19:06.999Z</time></trkpt><trkpt lat="43.59820221774237" lon="11.364014886202165"><ele>532.0</ele><time>2026-03-31T18:19:07.999Z</time></trkpt><trkpt lat="43.598224205450165" lon="11.364150929658354"><ele>531.8333333333334</ele><time>2026-03-31T18:19:08.999Z</time></trkpt><trkpt lat="43.59822730713926" lon="11.364268451313539"><ele>531.6666666666667</ele><time>2026-03-31T18:19:09.999Z</time></trkpt><trkpt lat="43.598245549717475" lon="11.364382865202796"><ele>531.5</ele><time>2026-03-31T18:19:10.999Z</time></trkpt><trkpt lat="43.59827554728209" lon="11.364483686412147"><ele>531.3333333333334</ele><time>2026-03-31T18:19:11.999Z</time></trkpt><trkpt lat="43.59831386587447" lon="11.364562532987526"><ele>531.1666666666666</ele><time>2026-03-31T18:19:12.999Z</time></trkpt><trkpt lat="43.59835893459798" lon="11.364627830364698"><ele>531.0</ele><time>2026-03-31T18:19:13.999Z</time></trkpt><trkpt lat="43.598442458579264" lon="11.36472003965664"><ele>531.5</ele><time>2026-03-31T18:19:15.999Z</time></trkpt><trkpt lat="43.598530886721356" lon="11.364810303314442"><ele>532.0</ele><time>2026-03-31T18:19:17.999Z</time></trkpt><trkpt lat="43.59859076869671" lon="11.364871428264523"><ele>532.5</ele><time>2026-03-31T18:19:18.999Z</time></trkpt><trkpt lat="43.59865863414104" lon="11.364940702402558"><ele>533.0</ele><time>2026-03-31T18:19:19.999Z</time></trkpt><trkpt lat="43.5987237771696" lon="11.365012115317928"><ele>533.5</ele><time>2026-03-31T18:19:20.999Z</time></trkpt><trkpt lat="43.5987829016823" lon="11.365081753596526"><ele>534.0</ele><time>2026-03-31T18:19:21.999Z</time></trkpt><trkpt lat="43.59883097692338" lon="11.36514519829579"><ele>531.0</ele><time>2026-03-31T18:19:22.999Z</time></trkpt><trkpt lat="43.59890011114948" lon="11.365264286455481"><ele>528.0</ele><time>2026-03-31T18:19:24.999Z</time></trkpt><trkpt lat="43.59893530746006" lon="11.365337460018058"><ele>525.0</ele><time>2026-03-31T18:19:25.999Z</time></trkpt><trkpt lat="43.59899007218453" lon="11.365491404575215"><ele>522.0</ele><time>2026-03-31T18:19:27.999Z</time></trkpt><trkpt lat="43.599029852405934" lon="11.365652706722829"><ele>519.0</ele><time>2026-03-31T18:19:29.999Z</time></trkpt><trkpt lat="43.59904191918237" lon="11.365738235746685"><ele>519.0</ele><time>2026-03-31T18:19:31.999Z</time></trkpt><trkpt lat="43.59948997753616" lon="11.365834178149282"><ele>519.0</ele><time>2026-03-31T18:19:34.999Z</time></trkpt><trkpt lat="43.59947154849366" lon="11.366001289805995"><ele>519.0</ele><time>2026-03-31T18:19:36.999Z</time></trkpt><trkpt lat="43.59948052328802" lon="11.366102499295778"><ele>519.0</ele><time>2026-03-31T18:19:37.999Z</time></trkpt><trkpt lat="43.5994778019074" lon="11.36620241565591"><ele>519.0</ele><time>2026-03-31T18:19:38.999Z</time></trkpt><trkpt lat="43.59948492193797" lon="11.366299934855183"><ele>519.0</ele><time>2026-03-31T18:19:39.999Z</time></trkpt><trkpt lat="43.59953792731034" lon="11.366474739443902"><ele>516.0</ele><time>2026-03-31T18:19:41.999Z</time></trkpt><trkpt lat="43.59957379933152" lon="11.366561596106012"><ele>513.0</ele><time>2026-03-31T18:19:42.999Z</time></trkpt><trkpt lat="43.599580546926475" lon="11.366648478832257"><ele>510.0</ele><time>2026-03-31T18:19:43.999Z</time></trkpt><trkpt lat="43.599577932244976" lon="11.366742023772918"><ele>507.0</ele><time>2026-03-31T18:19:44.999Z</time></trkpt><trkpt lat="43.59959389895571" lon="11.366827834636519"><ele>504.0</ele><time>2026-03-31T18:19:45.999Z</time></trkpt><trkpt lat="43.59966750843011" lon="11.36695106470116"><ele>501.0</ele><time>2026-03-31T18:19:47.999Z</time></trkpt><trkpt lat="43.59973180670997" lon="11.367010089429884"><ele>501.0</ele><time>2026-03-31T18:19:48.999Z</time></trkpt><trkpt lat="43.599796282134896" lon="11.367068825880907"><ele>501.0</ele><time>2026-03-31T18:19:49.999Z</time></trkpt><trkpt lat="43.59986052909197" lon="11.367101504156953"><ele>501.0</ele><time>2026-03-31T18:19:50.999Z</time></trkpt><trkpt lat="43.59996275647064" lon="11.367145196334297"><ele>501.0</ele><time>2026-03-31T18:19:51.999Z</time></trkpt><trkpt lat="43.60005849730595" lon="11.367182913980344"><ele>501.0</ele><time>2026-03-31T18:19:52.999Z</time></trkpt><trkpt lat="43.600144955387336" lon="11.36721716385738"><ele>501.0</ele><time>2026-03-31T18:19:53.999Z</time></trkpt><trkpt lat="43.60022339019521" lon="11.367260880361064"><ele>502.0</ele><time>2026-03-31T18:19:54.999Z</time></trkpt><trkpt lat="43.60028479708793" lon="11.367301036682228"><ele>503.0</ele><time>2026-03-31T18:19:55.999Z</time></trkpt><trkpt lat="43.60034399211299" lon="11.367342390303433"><ele>504.0</ele><time>2026-03-31T18:19:56.999Z</time></trkpt><trkpt lat="43.60043244675195" lon="11.367478150805642"><ele>505.0</ele><time>2026-03-31T18:19:58.999Z</time></trkpt><trkpt lat="43.60047500190723" lon="11.36758449789236"><ele>506.0</ele><time>2026-03-31T18:19:59.999Z</time></trkpt><trkpt lat="43.60052352078122" lon="11.367682914673198"><ele>507.0</ele><time>2026-03-31T18:20:00.999Z</time></trkpt><trkpt lat="43.60058257703052" lon="11.367781631361774"><ele>505.3333333333333</ele><time>2026-03-31T18:20:01.999Z</time></trkpt><trkpt lat="43.60064399753851" lon="11.367862407976308"><ele>503.66666666666663</ele><time>2026-03-31T18:20:02.999Z</time></trkpt><trkpt lat="43.60070654171053" lon="11.367940823304885"><ele>502.0</ele><time>2026-03-31T18:20:03.999Z</time></trkpt><trkpt lat="43.60077109084418" lon="11.368008143950572"><ele>500.3333333333333</ele><time>2026-03-31T18:20:04.999Z</time></trkpt><trkpt lat="43.600835378067515" lon="11.368061722583176"><ele>498.66666666666663</ele><time>2026-03-31T18:20:05.999Z</time></trkpt><trkpt lat="43.60092212797174" lon="11.36813008053123"><ele>497.0</ele><time>2026-03-31T18:20:06.999Z</time></trkpt><trkpt lat="43.60099023874923" lon="11.36818673638499"><ele>496.99999999999994</ele><time>2026-03-31T18:20:07.999Z</time></trkpt><trkpt lat="43.60105197145939" lon="11.368245048666065"><ele>497.0</ele><time>2026-03-31T18:20:08.999Z</time></trkpt><trkpt lat="43.60110726560668" lon="11.368307858085181"><ele>497.0</ele><time>2026-03-31T18:20:10Z</time></trkpt><trkpt lat="43.60115068901546" lon="11.368377094735322"><ele>497.0</ele><time>2026-03-31T18:20:11Z</time></trkpt><trkpt lat="43.601202391884954" lon="11.368454003368017"><ele>496.99999999999994</ele><time>2026-03-31T18:20:12Z</time></trkpt><trkpt lat="43.60126527308743" lon="11.368550356444462"><ele>497.0</ele><time>2026-03-31T18:20:13Z</time></trkpt><trkpt lat="43.60132462785123" lon="11.368643143844803"><ele>494.40000000000003</ele><time>2026-03-31T18:20:14Z</time></trkpt><trkpt lat="43.6013751629051" lon="11.368710098358402"><ele>491.80000000000007</ele><time>2026-03-31T18:20:15Z</time></trkpt><trkpt lat="43.6014335297279" lon="11.36878797235538"><ele>489.2</ele><time>2026-03-31T18:20:16Z</time></trkpt><trkpt lat="43.60147927569484" lon="11.368865751993834"><ele>486.6</ele><time>2026-03-31T18:20:17Z</time></trkpt><trkpt lat="43.60155992659904" lon="11.368987649510075"><ele>484.0</ele><time>2026-03-31T18:20:19Z</time></trkpt><trkpt lat="43.60164412136798" lon="11.369089846621174"><ele>484.00000000000006</ele><time>2026-03-31T18:20:21Z</time></trkpt><trkpt lat="43.601748280720074" lon="11.369168642595413"><ele>484.0</ele><time>2026-03-31T18:20:23Z</time></trkpt><trkpt lat="43.6018201636708" lon="11.369219330828717"><ele>484.0</ele><time>2026-03-31T18:20:24Z</time></trkpt><trkpt lat="43.601890003724506" lon="11.369262308697994"><ele>484.0</ele><time>2026-03-31T18:20:25Z</time></trkpt><trkpt lat="43.60195341097533" lon="11.369287825944605"><ele>484.00000000000006</ele><time>2026-03-31T18:20:26Z</time></trkpt><trkpt lat="43.60201801600445" lon="11.369314786178412"><ele>484.0</ele><time>2026-03-31T18:20:27Z</time></trkpt><trkpt lat="43.60211220825129" lon="11.369386517576364"><ele>481.2</ele><time>2026-03-31T18:20:29Z</time></trkpt><trkpt lat="43.60218403430346" lon="11.3695154098899"><ele>478.4</ele><time>2026-03-31T18:20:31Z</time></trkpt><trkpt lat="43.60223915024304" lon="11.36967606304306"><ele>475.6</ele><time>2026-03-31T18:20:33Z</time></trkpt><trkpt lat="43.60229391896183" lon="11.369764969024358"><ele>472.8</ele><time>2026-03-31T18:20:34Z</time></trkpt><trkpt lat="43.60235928126926" lon="11.369838375568035"><ele>470.0</ele><time>2026-03-31T18:20:35Z</time></trkpt><trkpt lat="43.60241953493013" lon="11.369888019007536"><ele>470.0</ele><time>2026-03-31T18:20:36Z</time></trkpt><trkpt lat="43.602483868267875" lon="11.369937851984755"><ele>470.0</ele><time>2026-03-31T18:20:37Z</time></trkpt><trkpt lat="43.602552805987905" lon="11.369991104908733"><ele>470.0</ele><time>2026-03-31T18:20:38Z</time></trkpt><trkpt lat="43.60261599649115" lon="11.370042475437861"><ele>470.0</ele><time>2026-03-31T18:20:39Z</time></trkpt><trkpt lat="43.60269260812719" lon="11.370173140667712"><ele>470.0</ele><time>2026-03-31T18:20:41Z</time></trkpt><trkpt lat="43.60273246661069" lon="11.370327297561193"><ele>469.99999999999994</ele><time>2026-03-31T18:20:43Z</time></trkpt><trkpt lat="43.602712682790774" lon="11.370507765385446"><ele>470.0</ele><time>2026-03-31T18:20:45Z</time></trkpt><trkpt lat="43.60269415965753" lon="11.370605261920133"><ele>470.0</ele><time>2026-03-31T18:20:46Z</time></trkpt><trkpt lat="43.60267711990227" lon="11.370718635162069"><ele>470.0</ele><time>2026-03-31T18:20:47Z</time></trkpt><trkpt lat="43.6026786005666" lon="11.370816185481686"><ele>469.99999999999994</ele><time>2026-03-31T18:20:48Z</time></trkpt><trkpt lat="43.60267400311628" lon="11.370907098298167"><ele>470.0</ele><time>2026-03-31T18:20:49Z</time></trkpt><trkpt lat="43.60267313577591" lon="11.370997431128782"><ele>468.6</ele><time>2026-03-31T18:20:50Z</time></trkpt><trkpt lat="43.60265612907559" lon="11.371158934731612"><ele>467.2</ele><time>2026-03-31T18:20:52Z</time></trkpt><trkpt lat="43.602630468660024" lon="11.371296404491366"><ele>465.79999999999995</ele><time>2026-03-31T18:20:54Z</time></trkpt><trkpt lat="43.602708978108005" lon="11.371425607743308"><ele>464.4</ele><time>2026-03-31T18:20:56Z</time></trkpt><trkpt lat="43.60279518725224" lon="11.371400475421861"><ele>463.0</ele><time>2026-03-31T18:20:58Z</time></trkpt><trkpt lat="43.602867234077074" lon="11.371250701593114"><ele>459.59999999999997</ele><time>2026-03-31T18:21:00Z</time></trkpt><trkpt lat="43.60290040112128" lon="11.371135377109663"><ele>456.19999999999993</ele><time>2026-03-31T18:21:01Z</time></trkpt><trkpt lat="43.602936152212564" lon="11.371020458880592"><ele>452.8</ele><time>2026-03-31T18:21:02Z</time></trkpt><trkpt lat="43.602980921503814" lon="11.37093607867416"><ele>449.4</ele><time>2026-03-31T18:21:03Z</time></trkpt><trkpt lat="43.60303465308898" lon="11.370789434029284"><ele>446.0</ele><time>2026-03-31T18:21:04.999Z</time></trkpt><trkpt lat="43.603133447507" lon="11.370768660725274"><ele>446.0</ele><time>2026-03-31T18:21:06.999Z</time></trkpt><trkpt lat="43.603195953580055" lon="11.370920692114812"><ele>446.0</ele><time>2026-03-31T18:21:08.999Z</time></trkpt><trkpt lat="43.60319135194369" lon="11.37102085440484"><ele>446.0</ele><time>2026-03-31T18:21:09.999Z</time></trkpt><trkpt lat="43.60317082583961" lon="11.371136858948338"><ele>446.0</ele><time>2026-03-31T18:21:10.999Z</time></trkpt><trkpt lat="43.603161930506424" lon="11.371256822048363"><ele>446.0</ele><time>2026-03-31T18:21:11.999Z</time></trkpt><trkpt lat="43.6031732473434" lon="11.371368582088854"><ele>443.4</ele><time>2026-03-31T18:21:12.999Z</time></trkpt><trkpt lat="43.60318250610948" lon="11.371543623774395"><ele>440.8</ele><time>2026-03-31T18:21:14.999Z</time></trkpt><trkpt lat="43.60318836765754" lon="11.37172830250945"><ele>438.19999999999993</ele><time>2026-03-31T18:21:16.999Z</time></trkpt><trkpt lat="43.60318972450302" lon="11.371827331803567"><ele>435.59999999999997</ele><time>2026-03-31T18:21:17.999Z</time></trkpt><trkpt lat="43.60316077872442" lon="11.37198325932946"><ele>433.0</ele><time>2026-03-31T18:21:19.999Z</time></trkpt><trkpt lat="43.60311459577454" lon="11.372072241067814"><ele>433.0</ele><time>2026-03-31T18:21:20.999Z</time></trkpt><trkpt lat="43.603072474578454" lon="11.372161168419515"><ele>432.99999999999994</ele><time>2026-03-31T18:21:21.999Z</time></trkpt><trkpt lat="43.60302848472713" lon="11.372236266292479"><ele>432.99999999999994</ele><time>2026-03-31T18:21:22.999Z</time></trkpt><trkpt lat="43.60296041233589" lon="11.372345800013067"><ele>433.0</ele><time>2026-03-31T18:21:24.999Z</time></trkpt><trkpt lat="43.602876678659044" lon="11.372456110507903"><ele>433.0</ele><time>2026-03-31T18:21:26.999Z</time></trkpt><trkpt lat="43.60278600378703" lon="11.372540994912839"><ele>433.4</ele><time>2026-03-31T18:21:28.999Z</time></trkpt><trkpt lat="43.60269942822695" lon="11.372635194430275"><ele>433.79999999999995</ele><time>2026-03-31T18:21:30.999Z</time></trkpt><trkpt lat="43.602655811083075" lon="11.372757696846554"><ele>434.2</ele><time>2026-03-31T18:21:32.999Z</time></trkpt><trkpt lat="43.602616906659414" lon="11.372858325858576"><ele>434.6</ele><time>2026-03-31T18:21:35.999Z</time></trkpt><trkpt lat="43.60258994283652" lon="11.372948205469296"><ele>435.0</ele><time>2026-03-31T18:21:38.999Z</time></trkpt><trkpt lat="43.602661457011514" lon="11.373056486376727"><ele>433.1666666666667</ele><time>2026-03-31T18:21:40.999Z</time></trkpt><trkpt lat="43.60273547763528" lon="11.373071298361014"><ele>431.33333333333337</ele><time>2026-03-31T18:21:41.999Z</time></trkpt><trkpt lat="43.602813058873124" lon="11.37305855735332"><ele>429.5</ele><time>2026-03-31T18:21:42.999Z</time></trkpt><trkpt lat="43.60287866879509" lon="11.373041491953408"><ele>427.6666666666667</ele><time>2026-03-31T18:21:43.999Z</time></trkpt><trkpt lat="43.60294391110834" lon="11.373027996102913"><ele>425.83333333333337</ele><time>2026-03-31T18:21:44.999Z</time></trkpt><trkpt lat="43.60304055930025" lon="11.373014588941475"><ele>424.0</ele><time>2026-03-31T18:21:46.999Z</time></trkpt><trkpt lat="43.60310360683472" lon="11.372964020845366"><ele>424.00000000000006</ele><time>2026-03-31T18:21:49.999Z</time></trkpt><trkpt lat="43.60300284147673" lon="11.372938659799065"><ele>424.0</ele><time>2026-03-31T18:21:55.999Z</time></trkpt><trkpt lat="43.60294851502252" lon="11.37299454244778"><ele>424.0</ele><time>2026-03-31T18:21:56.999Z</time></trkpt><trkpt lat="43.60284695394616" lon="11.373035045554296"><ele>424.0</ele><time>2026-03-31T18:21:58.999Z</time></trkpt><trkpt lat="43.60278292667782" lon="11.373046650262891"><ele>424.00000000000006</ele><time>2026-03-31T18:21:59.999Z</time></trkpt><trkpt lat="43.60271881792186" lon="11.373054980200706"><ele>424.0</ele><time>2026-03-31T18:22:00.999Z</time></trkpt><trkpt lat="43.602608652895036" lon="11.372994053561902"><ele>426.2</ele><time>2026-03-31T18:22:02.999Z</time></trkpt><trkpt lat="43.60255295297286" lon="11.372920359837005"><ele>428.4</ele><time>2026-03-31T18:22:04.999Z</time></trkpt><trkpt lat="43.60256293200006" lon="11.372831432186606"><ele>430.6</ele><time>2026-03-31T18:22:07.999Z</time></trkpt><trkpt lat="43.60256332966319" lon="11.372689939067804"><ele>432.8</ele><time>2026-03-31T18:22:11.999Z</time></trkpt><trkpt lat="43.60274054110222" lon="11.37256700963075"><ele>435.0</ele><time>2026-03-31T18:22:12.999Z</time></trkpt><trkpt lat="43.60283009074673" lon="11.372503617722257"><ele>434.6</ele><time>2026-03-31T18:22:15Z</time></trkpt><trkpt lat="43.602937281632556" lon="11.37237634237097"><ele>434.2</ele><time>2026-03-31T18:22:17Z</time></trkpt><trkpt lat="43.60299366756244" lon="11.372287104445027"><ele>433.79999999999995</ele><time>2026-03-31T18:22:18Z</time></trkpt><trkpt lat="43.60307607197321" lon="11.372138294484634"><ele>433.4</ele><time>2026-03-31T18:22:20Z</time></trkpt><trkpt lat="43.603121671945374" lon="11.37205759997817"><ele>433.0</ele><time>2026-03-31T18:22:21Z</time></trkpt><trkpt lat="43.60315966004231" lon="11.37196772505368"><ele>433.00000000000006</ele><time>2026-03-31T18:22:22Z</time></trkpt><trkpt lat="43.60318883221111" lon="11.371866188623434"><ele>433.0</ele><time>2026-03-31T18:22:23Z</time></trkpt><trkpt lat="43.60320324123077" lon="11.371767579919894"><ele>433.0</ele><time>2026-03-31T18:22:24Z</time></trkpt><trkpt lat="43.60319002083966" lon="11.371657575926125"><ele>433.0</ele><time>2026-03-31T18:22:25Z</time></trkpt><trkpt lat="43.60318454767312" lon="11.371535775247862"><ele>433.00000000000006</ele><time>2026-03-31T18:22:26Z</time></trkpt><trkpt lat="43.60318172553821" lon="11.371435125218055"><ele>433.0</ele><time>2026-03-31T18:22:27Z</time></trkpt><trkpt lat="43.60317842070475" lon="11.371334294097391"><ele>435.1666666666667</ele><time>2026-03-31T18:22:28Z</time></trkpt><trkpt lat="43.60317644797971" lon="11.371228037963133"><ele>437.33333333333337</ele><time>2026-03-31T18:22:29Z</time></trkpt><trkpt lat="43.603179485708566" lon="11.371129685169327"><ele>439.5</ele><time>2026-03-31T18:22:30Z</time></trkpt><trkpt lat="43.60318216604991" lon="11.371011235537612"><ele>441.66666666666663</ele><time>2026-03-31T18:22:31Z</time></trkpt><trkpt lat="43.60318648658901" lon="11.370919822309538"><ele>443.8333333333333</ele><time>2026-03-31T18:22:32Z</time></trkpt><trkpt lat="43.6031592020197" lon="11.370803318066862"><ele>446.0</ele><time>2026-03-31T18:22:34Z</time></trkpt><trkpt lat="43.603053636619144" lon="11.370779788114746"><ele>445.99999999999994</ele><time>2026-03-31T18:22:36Z</time></trkpt><trkpt lat="43.60300411990627" lon="11.37084669027208"><ele>446.0</ele><time>2026-03-31T18:22:37Z</time></trkpt><trkpt lat="43.60296648419748" lon="11.370960610432183"><ele>446.0</ele><time>2026-03-31T18:22:38Z</time></trkpt><trkpt lat="43.60293549588468" lon="11.37110301578408"><ele>446.0</ele><time>2026-03-31T18:22:39Z</time></trkpt><trkpt lat="43.60289123399661" lon="11.371219620592933"><ele>445.99999999999994</ele><time>2026-03-31T18:22:40Z</time></trkpt><trkpt lat="43.60286153447299" lon="11.371305087291722"><ele>446.0</ele><time>2026-03-31T18:22:41Z</time></trkpt><trkpt lat="43.60279142329718" lon="11.371415220295713"><ele>446.49999999999994</ele><time>2026-03-31T18:22:43Z</time></trkpt><trkpt lat="43.60268807459176" lon="11.371415106720454"><ele>447.0</ele><time>2026-03-31T18:22:45Z</time></trkpt><trkpt lat="43.60263913210558" lon="11.371268953728935"><ele>447.5</ele><time>2026-03-31T18:22:47Z</time></trkpt><trkpt lat="43.60262276731578" lon="11.371181777226518"><ele>448.0</ele><time>2026-03-31T18:22:48Z</time></trkpt><trkpt lat="43.60264165958598" lon="11.371092969265263"><ele>448.49999999999994</ele><time>2026-03-31T18:22:49Z</time></trkpt><trkpt lat="43.60266034583486" lon="11.371006567640531"><ele>449.0</ele><time>2026-03-31T18:22:50Z</time></trkpt><trkpt lat="43.602685099354225" lon="11.370883697887637"><ele>451.3333333333333</ele><time>2026-03-31T18:22:52Z</time></trkpt><trkpt lat="43.602670200364976" lon="11.37079676154205"><ele>453.66666666666663</ele><time>2026-03-31T18:22:53Z</time></trkpt><trkpt lat="43.60268156122049" lon="11.370705784069976"><ele>456.0</ele><time>2026-03-31T18:22:54Z</time></trkpt><trkpt lat="43.602704625355614" lon="11.370560296754173"><ele>458.33333333333337</ele><time>2026-03-31T18:22:56Z</time></trkpt><trkpt lat="43.602718832370385" lon="11.370461967478592"><ele>460.6666666666667</ele><time>2026-03-31T18:22:57Z</time></trkpt><trkpt lat="43.602720214346924" lon="11.37030649278428"><ele>463.0</ele><time>2026-03-31T18:22:59Z</time></trkpt><trkpt lat="43.60268581001807" lon="11.370190046522316"><ele>464.1666666666667</ele><time>2026-03-31T18:23:01Z</time></trkpt><trkpt lat="43.60261220833987" lon="11.370083636024702"><ele>465.33333333333337</ele><time>2026-03-31T18:23:03Z</time></trkpt><trkpt lat="43.60255575877916" lon="11.370028195467777"><ele>466.5</ele><time>2026-03-31T18:23:04Z</time></trkpt><trkpt lat="43.60250014894248" lon="11.369985165543977"><ele>467.66666666666663</ele><time>2026-03-31T18:23:05Z</time></trkpt><trkpt lat="43.60244600580215" lon="11.369939141432049"><ele>468.8333333333333</ele><time>2026-03-31T18:23:06Z</time></trkpt><trkpt lat="43.602384497740694" lon="11.369888982802198"><ele>470.0</ele><time>2026-03-31T18:23:07Z</time></trkpt><trkpt lat="43.60231647346707" lon="11.369824646488501"><ele>469.99999999999994</ele><time>2026-03-31T18:23:08Z</time></trkpt><trkpt lat="43.602273911799465" lon="11.369755135689333"><ele>470.0</ele><time>2026-03-31T18:23:09Z</time></trkpt><trkpt lat="43.60222690049672" lon="11.369675273605377"><ele>470.0</ele><time>2026-03-31T18:23:10Z</time></trkpt><trkpt lat="43.60217052184438" lon="11.369567849387948"><ele>470.0</ele><time>2026-03-31T18:23:11Z</time></trkpt><trkpt lat="43.60214684602079" lon="11.36948650709679"><ele>469.99999999999994</ele><time>2026-03-31T18:23:11.999Z</time></trkpt><trkpt lat="43.60208245861497" lon="11.369386305703571"><ele>470.0</ele><time>2026-03-31T18:23:13.999Z</time></trkpt><trkpt lat="43.601965840430694" lon="11.369335510038407"><ele>472.0</ele><time>2026-03-31T18:23:15.999Z</time></trkpt><trkpt lat="43.60189933836976" lon="11.369296855951289"><ele>473.99999999999994</ele><time>2026-03-31T18:23:16.999Z</time></trkpt><trkpt lat="43.601817273578256" lon="11.369253561887886"><ele>476.0</ele><time>2026-03-31T18:23:17.999Z</time></trkpt><trkpt lat="43.60175135044309" lon="11.369205879123152"><ele>478.0</ele><time>2026-03-31T18:23:18.999Z</time></trkpt><trkpt lat="43.60168430636029" lon="11.369143479789567"><ele>479.99999999999994</ele><time>2026-03-31T18:23:19.999Z</time></trkpt><trkpt lat="43.60162752460226" lon="11.36909906938176"><ele>482.0</ele><time>2026-03-31T18:23:20.999Z</time></trkpt><trkpt lat="43.60156785189513" lon="11.36905208044245"><ele>484.0</ele><time>2026-03-31T18:23:21.999Z</time></trkpt><trkpt lat="43.601487984157494" lon="11.36891249964973"><ele>482.33333333333337</ele><time>2026-03-31T18:23:23.999Z</time></trkpt><trkpt lat="43.601432693563545" lon="11.368815705265316"><ele>480.6666666666667</ele><time>2026-03-31T18:23:24.999Z</time></trkpt><trkpt lat="43.60137354988133" lon="11.368722923326374"><ele>479.0</ele><time>2026-03-31T18:23:25.999Z</time></trkpt><trkpt lat="43.60130840017153" lon="11.368642111495772"><ele>477.33333333333337</ele><time>2026-03-31T18:23:26.999Z</time></trkpt><trkpt lat="43.601249476954045" lon="11.368564844922927"><ele>475.6666666666667</ele><time>2026-03-31T18:23:27.999Z</time></trkpt><trkpt lat="43.60120112700281" lon="11.368488980181471"><ele>474.0</ele><time>2026-03-31T18:23:28.999Z</time></trkpt><trkpt lat="43.60114755565944" lon="11.368404963940707"><ele>476.3333333333333</ele><time>2026-03-31T18:23:29.999Z</time></trkpt><trkpt lat="43.60109084795308" lon="11.368321826741562"><ele>478.66666666666663</ele><time>2026-03-31T18:23:30.999Z</time></trkpt><trkpt lat="43.60104243366727" lon="11.368264510615836"><ele>481.0</ele><time>2026-03-31T18:23:31.999Z</time></trkpt><trkpt lat="43.60098634831211" lon="11.368205065737222"><ele>483.3333333333333</ele><time>2026-03-31T18:23:32.999Z</time></trkpt><trkpt lat="43.600914562627516" lon="11.368146577405765"><ele>485.66666666666663</ele><time>2026-03-31T18:23:33.999Z</time></trkpt><trkpt lat="43.60079718826494" lon="11.36805434118867"><ele>488.0</ele><time>2026-03-31T18:23:35.999Z</time></trkpt><trkpt lat="43.60073813584923" lon="11.367998766950551"><ele>487.99999999999994</ele><time>2026-03-31T18:23:36.999Z</time></trkpt><trkpt lat="43.60067245707051" lon="11.367938902983653"><ele>488.0</ele><time>2026-03-31T18:23:37.999Z</time></trkpt><trkpt lat="43.60060543677345" lon="11.367869340728399"><ele>488.0</ele><time>2026-03-31T18:23:38.999Z</time></trkpt><trkpt lat="43.60054423140995" lon="11.36777789483445"><ele>488.0</ele><time>2026-03-31T18:23:39.999Z</time></trkpt><trkpt lat="43.6004823225275" lon="11.367675797519903"><ele>487.99999999999994</ele><time>2026-03-31T18:23:40.999Z</time></trkpt><trkpt lat="43.60044884260645" lon="11.367586421347452"><ele>488.0</ele><time>2026-03-31T18:23:41.999Z</time></trkpt><trkpt lat="43.600413436927866" lon="11.36750627996038"><ele>487.99999999999994</ele><time>2026-03-31T18:23:42.999Z</time></trkpt><trkpt lat="43.60037975941561" lon="11.367428137791386"><ele>488.0</ele><time>2026-03-31T18:23:43.999Z</time></trkpt><trkpt lat="43.600326131757804" lon="11.367352522597415"><ele>488.0</ele><time>2026-03-31T18:23:44.999Z</time></trkpt><trkpt lat="43.60021867911755" lon="11.367276372227677"><ele>488.0</ele><time>2026-03-31T18:23:46.999Z</time></trkpt><trkpt lat="43.60013993570943" lon="11.36723970872692"><ele>487.99999999999994</ele><time>2026-03-31T18:23:47.999Z</time></trkpt><trkpt lat="43.60004920285396" lon="11.36720130796106"><ele>488.0</ele><time>2026-03-31T18:23:48.999Z</time></trkpt><trkpt lat="43.59997155215944" lon="11.367171212963695"><ele>490.16666666666663</ele><time>2026-03-31T18:23:49.999Z</time></trkpt><trkpt lat="43.59988678710936" lon="11.367133159675733"><ele>492.3333333333333</ele><time>2026-03-31T18:23:50.999Z</time></trkpt><trkpt lat="43.59981589578409" lon="11.367104532275624"><ele>494.5</ele><time>2026-03-31T18:23:51.999Z</time></trkpt><trkpt lat="43.59974421718591" lon="11.36705616648517"><ele>496.66666666666663</ele><time>2026-03-31T18:23:52.999Z</time></trkpt><trkpt lat="43.59968425379472" lon="11.367008776325799"><ele>498.8333333333333</ele><time>2026-03-31T18:23:53.999Z</time></trkpt><trkpt lat="43.59962673818669" lon="11.366940240291314"><ele>501.0</ele><time>2026-03-31T18:23:54.999Z</time></trkpt><trkpt lat="43.59958558896407" lon="11.366869089272617"><ele>501.0</ele><time>2026-03-31T18:23:55.999Z</time></trkpt><trkpt lat="43.59955598759515" lon="11.366688441271144"><ele>501.0</ele><time>2026-03-31T18:23:57.999Z</time></trkpt><trkpt lat="43.59955406496236" lon="11.366587792081619"><ele>501.0</ele><time>2026-03-31T18:23:58.999Z</time></trkpt><trkpt lat="43.59954269215433" lon="11.366498533488672"><ele>501.0</ele><time>2026-03-31T18:23:59.999Z</time></trkpt><trkpt lat="43.599515840065614" lon="11.36641116668087"><ele>501.0</ele><time>2026-03-31T18:24:00.999Z</time></trkpt><trkpt lat="43.599484861025225" lon="11.366333538441673"><ele>501.0</ele><time>2026-03-31T18:24:01.999Z</time></trkpt><trkpt lat="43.59946159172923" lon="11.366237375431725"><ele>504.6</ele><time>2026-03-31T18:24:02.999Z</time></trkpt><trkpt lat="43.59946063483683" lon="11.366118230328919"><ele>508.20000000000005</ele><time>2026-03-31T18:24:03.999Z</time></trkpt><trkpt lat="43.59946675037554" lon="11.366025455730306"><ele>511.79999999999995</ele><time>2026-03-31T18:24:04.999Z</time></trkpt><trkpt lat="43.5994766748673" lon="11.365883899015921"><ele>515.4</ele><time>2026-03-31T18:24:06.999Z</time></trkpt><trkpt lat="43.599471334571405" lon="11.365709274144587"><ele>519.0</ele><time>2026-03-31T18:24:08.999Z</time></trkpt><trkpt lat="43.59943371031523" lon="11.365563128791363"><ele>519.0</ele><time>2026-03-31T18:24:10.999Z</time></trkpt><trkpt lat="43.59934986006251" lon="11.365438599280735"><ele>519.0</ele><time>2026-03-31T18:24:12.999Z</time></trkpt><trkpt lat="43.59928203919879" lon="11.365356439610927"><ele>519.0</ele><time>2026-03-31T18:24:13.999Z</time></trkpt><trkpt lat="43.599185221064495" lon="11.365235406907424"><ele>519.0</ele><time>2026-03-31T18:24:15.999Z</time></trkpt><trkpt lat="43.599089615194536" lon="11.365112339583474"><ele>519.0</ele><time>2026-03-31T18:24:17.999Z</time></trkpt><trkpt lat="43.59903521278854" lon="11.365047939837249"><ele>519.0</ele><time>2026-03-31T18:24:18.999Z</time></trkpt><trkpt lat="43.59898367625958" lon="11.364984322498353"><ele>519.0</ele><time>2026-03-31T18:24:19.999Z</time></trkpt><trkpt lat="43.59892098086758" lon="11.364910671640475"><ele>519.0</ele><time>2026-03-31T18:24:21Z</time></trkpt><trkpt lat="43.59886235523913" lon="11.364864145008719"><ele>519.0</ele><time>2026-03-31T18:24:22Z</time></trkpt><trkpt lat="43.598789895926494" lon="11.364820754154625"><ele>519.0</ele><time>2026-03-31T18:24:23Z</time></trkpt><trkpt lat="43.598714297508835" lon="11.364775042578032"><ele>521.4</ele><time>2026-03-31T18:24:24Z</time></trkpt><trkpt lat="43.59860886652063" lon="11.364700149239127"><ele>523.8</ele><time>2026-03-31T18:24:26Z</time></trkpt><trkpt lat="43.59849457207541" lon="11.36464765865477"><ele>526.2</ele><time>2026-03-31T18:24:28Z</time></trkpt><trkpt lat="43.598401574322516" lon="11.36460753607587"><ele>528.6</ele><time>2026-03-31T18:24:30Z</time></trkpt><trkpt lat="43.59834890065354" lon="11.364551113988911"><ele>531.0</ele><time>2026-03-31T18:24:31Z</time></trkpt><trkpt lat="43.598289639750604" lon="11.364465157142734"><ele>531.0</ele><time>2026-03-31T18:24:32Z</time></trkpt><trkpt lat="43.59825190193748" lon="11.36434967006881"><ele>531.0</ele><time>2026-03-31T18:24:33Z</time></trkpt><trkpt lat="43.59824001882031" lon="11.36421538494843"><ele>531.0</ele><time>2026-03-31T18:24:34Z</time></trkpt><trkpt lat="43.59824471366602" lon="11.364072547828995"><ele>531.0</ele><time>2026-03-31T18:24:35Z</time></trkpt><trkpt lat="43.59823755292336" lon="11.363934923235886"><ele>531.0</ele><time>2026-03-31T18:24:36Z</time></trkpt><trkpt lat="43.59821451258374" lon="11.363791165839288"><ele>531.2</ele><time>2026-03-31T18:24:37Z</time></trkpt><trkpt lat="43.598180539830906" lon="11.36364630875302"><ele>531.4000000000001</ele><time>2026-03-31T18:24:38Z</time></trkpt><trkpt lat="43.598119400866565" lon="11.363513947385373"><ele>531.6</ele><time>2026-03-31T18:24:39Z</time></trkpt><trkpt lat="43.59804738001354" lon="11.363398949015851"><ele>531.8000000000001</ele><time>2026-03-31T18:24:40Z</time></trkpt><trkpt lat="43.597966551533716" lon="11.363307496332743"><ele>532.0</ele><time>2026-03-31T18:24:41Z</time></trkpt><trkpt lat="43.597873346318266" lon="11.363235371001966"><ele>532.0</ele><time>2026-03-31T18:24:42Z</time></trkpt><trkpt lat="43.59776801176877" lon="11.363178182255913"><ele>532.0</ele><time>2026-03-31T18:24:43Z</time></trkpt><trkpt lat="43.597653669550496" lon="11.363132575543423"><ele>532.0</ele><time>2026-03-31T18:24:44Z</time></trkpt><trkpt lat="43.59754151007378" lon="11.363097400011108"><ele>532.0</ele><time>2026-03-31T18:24:45Z</time></trkpt><trkpt lat="43.59742433431217" lon="11.36307551555179"><ele>532.0</ele><time>2026-03-31T18:24:46Z</time></trkpt><trkpt lat="43.59730310354428" lon="11.36303361813331"><ele>532.0</ele><time>2026-03-31T18:24:47Z</time></trkpt><trkpt lat="43.59718812151292" lon="11.362986525529594"><ele>532.0</ele><time>2026-03-31T18:24:48Z</time></trkpt><trkpt lat="43.597067084717246" lon="11.36294066332923"><ele>532.0</ele><time>2026-03-31T18:24:49Z</time></trkpt><trkpt lat="43.59697516134627" lon="11.362875480180085"><ele>530.8000000000001</ele><time>2026-03-31T18:24:50Z</time></trkpt><trkpt lat="43.596882940989516" lon="11.36279577733303"><ele>529.6</ele><time>2026-03-31T18:24:51Z</time></trkpt><trkpt lat="43.59680853313098" lon="11.362680750578185"><ele>528.4000000000001</ele><time>2026-03-31T18:24:52Z</time></trkpt><trkpt lat="43.59675846108806" lon="11.36254481054314"><ele>527.2</ele><time>2026-03-31T18:24:53Z</time></trkpt><trkpt lat="43.596709889721105" lon="11.362405944654364"><ele>526.0</ele><time>2026-03-31T18:24:54Z</time></trkpt><trkpt lat="43.59665656438284" lon="11.362290006454057"><ele>526.0</ele><time>2026-03-31T18:24:55Z</time></trkpt><trkpt lat="43.59658191145867" lon="11.362203514033874"><ele>526.0</ele><time>2026-03-31T18:24:56Z</time></trkpt><trkpt lat="43.596499078938585" lon="11.362138305638078"><ele>526.0</ele><time>2026-03-31T18:24:57Z</time></trkpt><trkpt lat="43.596395451903035" lon="11.362118507178518"><ele>526.0</ele><time>2026-03-31T18:24:58Z</time></trkpt><trkpt lat="43.59628658753232" lon="11.362153578592848"><ele>526.0</ele><time>2026-03-31T18:24:59Z</time></trkpt><trkpt lat="43.596177958891346" lon="11.362148682551114"><ele>525.25</ele><time>2026-03-31T18:25:00Z</time></trkpt><trkpt lat="43.596066156584456" lon="11.362181927071767"><ele>524.5</ele><time>2026-03-31T18:25:01Z</time></trkpt><trkpt lat="43.595962798057144" lon="11.362259109451106"><ele>523.75</ele><time>2026-03-31T18:25:02Z</time></trkpt><trkpt lat="43.595861164753295" lon="11.362333335333998"><ele>523.0</ele><time>2026-03-31T18:25:03Z</time></trkpt><trkpt lat="43.59575176839676" lon="11.362393110605543"><ele>523.0</ele><time>2026-03-31T18:25:04Z</time></trkpt><trkpt lat="43.5956500543294" lon="11.362471746882182"><ele>523.0</ele><time>2026-03-31T18:25:05Z</time></trkpt><trkpt lat="43.595544358647345" lon="11.362555541536713"><ele>523.0</ele><time>2026-03-31T18:25:06Z</time></trkpt><trkpt lat="43.595441195153086" lon="11.362639796203926"><ele>523.0</ele><time>2026-03-31T18:25:07Z</time></trkpt><trkpt lat="43.595345184852334" lon="11.362737918879208"><ele>518.75</ele><time>2026-03-31T18:25:08Z</time></trkpt><trkpt lat="43.59523651673677" lon="11.362808938713354"><ele>514.5</ele><time>2026-03-31T18:25:09Z</time></trkpt><trkpt lat="43.59511466203101" lon="11.362847719310263"><ele>510.25</ele><time>2026-03-31T18:25:10Z</time></trkpt><trkpt lat="43.595006113515225" lon="11.362928607870165"><ele>506.0</ele><time>2026-03-31T18:25:11Z</time></trkpt><trkpt lat="43.59489638469618" lon="11.363011137330233"><ele>509.5</ele><time>2026-03-31T18:25:12Z</time></trkpt><trkpt lat="43.59480082133146" lon="11.363121677981137"><ele>513.0</ele><time>2026-03-31T18:25:13Z</time></trkpt><trkpt lat="43.59469814098735" lon="11.363221242598879"><ele>516.5</ele><time>2026-03-31T18:25:14Z</time></trkpt><trkpt lat="43.594601535613634" lon="11.363326236918372"><ele>520.0</ele><time>2026-03-31T18:25:15Z</time></trkpt><trkpt lat="43.59449340938207" lon="11.363408677672542"><ele>520.0</ele><time>2026-03-31T18:25:16Z</time></trkpt><trkpt lat="43.59437657597194" lon="11.363470969425103"><ele>520.0</ele><time>2026-03-31T18:25:17Z</time></trkpt><trkpt lat="43.59426067835026" lon="11.363507047336055"><ele>520.0</ele><time>2026-03-31T18:25:18Z</time></trkpt><trkpt lat="43.594141324402514" lon="11.3634770300645"><ele>520.0</ele><time>2026-03-31T18:25:18.999Z</time></trkpt><trkpt lat="43.59402457357094" lon="11.363424605246534"><ele>520.0</ele><time>2026-03-31T18:25:19.999Z</time></trkpt><trkpt lat="43.59390933774295" lon="11.363371131430714"><ele>520.0</ele><time>2026-03-31T18:25:20.999Z</time></trkpt><trkpt lat="43.593793720573444" lon="11.363314731609476"><ele>520.0</ele><time>2026-03-31T18:25:21.999Z</time></trkpt><trkpt lat="43.59367817393752" lon="11.363261457844681"><ele>520.0</ele><time>2026-03-31T18:25:22.999Z</time></trkpt><trkpt lat="43.593561796455894" lon="11.363215070041248"><ele>521.75</ele><time>2026-03-31T18:25:23.999Z</time></trkpt><trkpt lat="43.59344439686137" lon="11.363200283056035"><ele>523.5</ele><time>2026-03-31T18:25:24.999Z</time></trkpt><trkpt lat="43.59332609906689" lon="11.36322292442673"><ele>525.25</ele><time>2026-03-31T18:25:25.999Z</time></trkpt><trkpt lat="43.5932017782808" lon="11.363226037235611"><ele>527.0</ele><time>2026-03-31T18:25:26.999Z</time></trkpt><trkpt lat="43.59307832875589" lon="11.36325378283166"><ele>527.0</ele><time>2026-03-31T18:25:27.999Z</time></trkpt><trkpt lat="43.59295904088312" lon="11.363273526713732"><ele>527.0</ele><time>2026-03-31T18:25:28.999Z</time></trkpt><trkpt lat="43.59284689849645" lon="11.363285466158077"><ele>527.0</ele><time>2026-03-31T18:25:29.999Z</time></trkpt><trkpt lat="43.59274479430871" lon="11.363293621641159"><ele>527.0</ele><time>2026-03-31T18:25:30.999Z</time></trkpt><trkpt lat="43.59264784568615" lon="11.363303309229455"><ele>527.0</ele><time>2026-03-31T18:25:31.999Z</time></trkpt><trkpt lat="43.59256191144895" lon="11.36325388517943"><ele>528.25</ele><time>2026-03-31T18:25:32.999Z</time></trkpt><trkpt lat="43.59250429432952" lon="11.3631622902202"><ele>529.5</ele><time>2026-03-31T18:25:33.999Z</time></trkpt><trkpt lat="43.59248819688211" lon="11.363015739187771"><ele>530.75</ele><time>2026-03-31T18:25:34.999Z</time></trkpt><trkpt lat="43.59248999290304" lon="11.36278842745929"><ele>532.0</ele><time>2026-03-31T18:25:36.999Z</time></trkpt><trkpt lat="43.592515635547045" lon="11.362627817966498"><ele>532.0</ele><time>2026-03-31T18:25:37.999Z</time></trkpt><trkpt lat="43.59257377899474" lon="11.362470216893273"><ele>532.0</ele><time>2026-03-31T18:25:38.999Z</time></trkpt><trkpt lat="43.592634287379454" lon="11.36230577368594"><ele>532.0</ele><time>2026-03-31T18:25:39.999Z</time></trkpt><trkpt lat="43.59271139736892" lon="11.362140368992527"><ele>532.0</ele><time>2026-03-31T18:25:40.999Z</time></trkpt><trkpt lat="43.59277955807277" lon="11.361981742377122"><ele>521.75</ele><time>2026-03-31T18:25:41.999Z</time></trkpt><trkpt lat="43.592840744700844" lon="11.36183868421386"><ele>511.5</ele><time>2026-03-31T18:25:42.999Z</time></trkpt><trkpt lat="43.59289178553597" lon="11.361691692058848"><ele>501.25</ele><time>2026-03-31T18:25:43.999Z</time></trkpt><trkpt lat="43.59292283876792" lon="11.361540535398053"><ele>491.0</ele><time>2026-03-31T18:25:44.999Z</time></trkpt><trkpt lat="43.5929409204871" lon="11.361392482063"><ele>489.4</ele><time>2026-03-31T18:25:45.999Z</time></trkpt><trkpt lat="43.59294143383451" lon="11.361243404393656"><ele>487.8</ele><time>2026-03-31T18:25:46.999Z</time></trkpt><trkpt lat="43.59293196817779" lon="11.361098061295044"><ele>486.19999999999993</ele><time>2026-03-31T18:25:47.999Z</time></trkpt><trkpt lat="43.59290416351397" lon="11.360952537642799"><ele>484.59999999999997</ele><time>2026-03-31T18:25:48.999Z</time></trkpt><trkpt lat="43.59284447347621" lon="11.36082937001894"><ele>483.0</ele><time>2026-03-31T18:25:49.999Z</time></trkpt><trkpt lat="43.592753581023366" lon="11.36073848205768"><ele>489.25</ele><time>2026-03-31T18:25:50.999Z</time></trkpt><trkpt lat="43.59264052398726" lon="11.360693376611067"><ele>495.5</ele><time>2026-03-31T18:25:51.999Z</time></trkpt><trkpt lat="43.592518477255766" lon="11.360660909217296"><ele>501.75</ele><time>2026-03-31T18:25:52.999Z</time></trkpt><trkpt lat="43.59242132450647" lon="11.36057517015454"><ele>508.0</ele><time>2026-03-31T18:25:53.999Z</time></trkpt><trkpt lat="43.59236515384389" lon="11.36043211138175"><ele>508.0</ele><time>2026-03-31T18:25:54.999Z</time></trkpt><trkpt lat="43.59238454970688" lon="11.360274902296398"><ele>508.0</ele><time>2026-03-31T18:25:55.999Z</time></trkpt><trkpt lat="43.5924078819012" lon="11.36011922621909"><ele>508.0</ele><time>2026-03-31T18:25:56.999Z</time></trkpt><trkpt lat="43.59242191785153" lon="11.359941381826872"><ele>508.0</ele><time>2026-03-31T18:25:57.999Z</time></trkpt><trkpt lat="43.59244683284905" lon="11.359741844695986"><ele>507.75</ele><time>2026-03-31T18:25:58.999Z</time></trkpt><trkpt lat="43.59248449589376" lon="11.359544010720965"><ele>507.5</ele><time>2026-03-31T18:25:59.999Z</time></trkpt><trkpt lat="43.59252974248692" lon="11.359372016447924"><ele>507.25</ele><time>2026-03-31T18:26:00.999Z</time></trkpt><trkpt lat="43.592588674080226" lon="11.359229719379076"><ele>507.0</ele><time>2026-03-31T18:26:01.999Z</time></trkpt><trkpt lat="43.59265704655931" lon="11.359143337290453"><ele>507.0</ele><time>2026-03-31T18:26:02.999Z</time></trkpt><trkpt lat="43.592752256412375" lon="11.359033325304113"><ele>507.0</ele><time>2026-03-31T18:26:03.999Z</time></trkpt><trkpt lat="43.59278510223089" lon="11.358896825643896"><ele>507.0</ele><time>2026-03-31T18:26:04.999Z</time></trkpt><trkpt lat="43.592780958685125" lon="11.35874400624576"><ele>507.0</ele><time>2026-03-31T18:26:05.999Z</time></trkpt><trkpt lat="43.592712775533855" lon="11.35860761483549"><ele>506.0</ele><time>2026-03-31T18:26:06.999Z</time></trkpt><trkpt lat="43.59262530536784" lon="11.358485671514073"><ele>505.0</ele><time>2026-03-31T18:26:07.999Z</time></trkpt><trkpt lat="43.592540813805" lon="11.358347364211618"><ele>504.0</ele><time>2026-03-31T18:26:08.999Z</time></trkpt><trkpt lat="43.5924852523653" lon="11.358176298565654"><ele>503.0</ele><time>2026-03-31T18:26:09.999Z</time></trkpt><trkpt lat="43.59244497116018" lon="11.357986551594125"><ele>498.5</ele><time>2026-03-31T18:26:10.999Z</time></trkpt><trkpt lat="43.59240804254123" lon="11.357779552734419"><ele>494.0</ele><time>2026-03-31T18:26:11.999Z</time></trkpt><trkpt lat="43.592371166607776" lon="11.35758553627104"><ele>489.5</ele><time>2026-03-31T18:26:12.999Z</time></trkpt><trkpt lat="43.59234243388621" lon="11.357404946652519"><ele>485.0</ele><time>2026-03-31T18:26:13.999Z</time></trkpt><trkpt lat="43.59231696456462" lon="11.357228590801947"><ele>481.0</ele><time>2026-03-31T18:26:14.999Z</time></trkpt><trkpt lat="43.59229481537091" lon="11.357060215950051"><ele>477.0</ele><time>2026-03-31T18:26:15.999Z</time></trkpt><trkpt lat="43.59226819567417" lon="11.356895917024012"><ele>473.0</ele><time>2026-03-31T18:26:16.999Z</time></trkpt><trkpt lat="43.59223930759668" lon="11.35673748432017"><ele>469.0</ele><time>2026-03-31T18:26:17.999Z</time></trkpt><trkpt lat="43.59220345877063" lon="11.356586888932064"><ele>469.0</ele><time>2026-03-31T18:26:18.999Z</time></trkpt><trkpt lat="43.59213950327651" lon="11.356457662320746"><ele>469.0</ele><time>2026-03-31T18:26:19.999Z</time></trkpt><trkpt lat="43.59204475175555" lon="11.356366221159059"><ele>469.0</ele><time>2026-03-31T18:26:20.999Z</time></trkpt><trkpt lat="43.59194099172408" lon="11.356299881689049"><ele>469.0</ele><time>2026-03-31T18:26:21.999Z</time></trkpt><trkpt lat="43.59183271552655" lon="11.356236819342602"><ele>470.2</ele><time>2026-03-31T18:26:22.999Z</time></trkpt><trkpt lat="43.59173984172214" lon="11.356146270127175"><ele>471.4</ele><time>2026-03-31T18:26:23.999Z</time></trkpt><trkpt lat="43.59166266046064" lon="11.356032892853174"><ele>472.6</ele><time>2026-03-31T18:26:24.999Z</time></trkpt><trkpt lat="43.591598323844195" lon="11.355912185383987"><ele>473.8</ele><time>2026-03-31T18:26:25.999Z</time></trkpt><trkpt lat="43.59153938447689" lon="11.355793201578566"><ele>475.0</ele><time>2026-03-31T18:26:27Z</time></trkpt><trkpt lat="43.591458371974944" lon="11.355722025455147"><ele>475.0</ele><time>2026-03-31T18:26:28Z</time></trkpt><trkpt lat="43.591351178948024" lon="11.35570394188968"><ele>475.0</ele><time>2026-03-31T18:26:29Z</time></trkpt><trkpt lat="43.59124168598924" lon="11.355741561889444"><ele>475.0</ele><time>2026-03-31T18:26:30Z</time></trkpt><trkpt lat="43.591129613515974" lon="11.355765281152445"><ele>475.0</ele><time>2026-03-31T18:26:31Z</time></trkpt><trkpt lat="43.59102211095393" lon="11.355793001820896"><ele>475.0</ele><time>2026-03-31T18:26:32Z</time></trkpt><trkpt lat="43.59091804869869" lon="11.355761965483582"><ele>475.6</ele><time>2026-03-31T18:26:33Z</time></trkpt><trkpt lat="43.59083297349206" lon="11.35568494256107"><ele>476.2</ele><time>2026-03-31T18:26:34Z</time></trkpt><trkpt lat="43.590775663652174" lon="11.355569310013813"><ele>476.79999999999995</ele><time>2026-03-31T18:26:35Z</time></trkpt><trkpt lat="43.59074663006824" lon="11.355429751929366"><ele>477.4</ele><time>2026-03-31T18:26:36Z</time></trkpt><trkpt lat="43.59077306867895" lon="11.355280581628369"><ele>478.0</ele><time>2026-03-31T18:26:37Z</time></trkpt><trkpt lat="43.59084466924297" lon="11.355147906261823"><ele>478.25</ele><time>2026-03-31T18:26:38Z</time></trkpt><trkpt lat="43.59095436232618" lon="11.355067053312533"><ele>478.5</ele><time>2026-03-31T18:26:39Z</time></trkpt><trkpt lat="43.59106009757318" lon="11.355001564506779"><ele>478.75</ele><time>2026-03-31T18:26:40Z</time></trkpt><trkpt lat="43.59117067140271" lon="11.354920987356742"><ele>479.0</ele><time>2026-03-31T18:26:41Z</time></trkpt><trkpt lat="43.59129567568143" lon="11.354876915030099"><ele>480.25</ele><time>2026-03-31T18:26:42Z</time></trkpt><trkpt lat="43.5914219056269" lon="11.354825614109718"><ele>481.5</ele><time>2026-03-31T18:26:43Z</time></trkpt><trkpt lat="43.59154237412094" lon="11.35475319149891"><ele>482.75</ele><time>2026-03-31T18:26:44Z</time></trkpt><trkpt lat="43.5916516514096" lon="11.354665636473621"><ele>484.0</ele><time>2026-03-31T18:26:45Z</time></trkpt><trkpt lat="43.59174669928619" lon="11.354553903913565"><ele>484.0</ele><time>2026-03-31T18:26:46Z</time></trkpt><trkpt lat="43.59184235433877" lon="11.354445547254047"><ele>484.0</ele><time>2026-03-31T18:26:47Z</time></trkpt><trkpt lat="43.591952015403166" lon="11.354362543618686"><ele>484.0</ele><time>2026-03-31T18:26:48Z</time></trkpt><trkpt lat="43.592073444992444" lon="11.354316034676526"><ele>484.0</ele><time>2026-03-31T18:26:49Z</time></trkpt><trkpt lat="43.59218866448105" lon="11.35429975320734"><ele>479.5</ele><time>2026-03-31T18:26:50Z</time></trkpt><trkpt lat="43.59229328291132" lon="11.354249028911052"><ele>475.0</ele><time>2026-03-31T18:26:51Z</time></trkpt><trkpt lat="43.59238291750463" lon="11.354144547606904"><ele>470.5</ele><time>2026-03-31T18:26:52Z</time></trkpt><trkpt lat="43.59245721358285" lon="11.353999122808014"><ele>466.0</ele><time>2026-03-31T18:26:53Z</time></trkpt><trkpt lat="43.59255193148936" lon="11.353878542018679"><ele>467.0</ele><time>2026-03-31T18:26:54Z</time></trkpt><trkpt lat="43.59263818139167" lon="11.353747652634963"><ele>468.0</ele><time>2026-03-31T18:26:55Z</time></trkpt><trkpt lat="43.59273884499221" lon="11.353633430824638"><ele>469.0</ele><time>2026-03-31T18:26:56Z</time></trkpt><trkpt lat="43.59282965725196" lon="11.353514206535705"><ele>470.0</ele><time>2026-03-31T18:26:57Z</time></trkpt><trkpt lat="43.59290059620837" lon="11.353386159294407"><ele>468.5</ele><time>2026-03-31T18:26:58Z</time></trkpt><trkpt lat="43.59294714062443" lon="11.35324423929866"><ele>467.0</ele><time>2026-03-31T18:26:59Z</time></trkpt><trkpt lat="43.59297261595685" lon="11.3530851573244"><ele>465.5</ele><time>2026-03-31T18:27:00Z</time></trkpt><trkpt lat="43.592990525711684" lon="11.35291952558679"><ele>464.0</ele><time>2026-03-31T18:27:01Z</time></trkpt><trkpt lat="43.59302210369087" lon="11.352754316451776"><ele>464.0</ele><time>2026-03-31T18:27:02Z</time></trkpt><trkpt lat="43.593089931448745" lon="11.352606264706068"><ele>464.0</ele><time>2026-03-31T18:27:03Z</time></trkpt><trkpt lat="43.59319167047698" lon="11.352493244276108"><ele>464.0</ele><time>2026-03-31T18:27:04Z</time></trkpt><trkpt lat="43.593274321122976" lon="11.35234654692032"><ele>464.0</ele><time>2026-03-31T18:27:05Z</time></trkpt><trkpt lat="43.59335966745167" lon="11.352200129836685"><ele>466.25</ele><time>2026-03-31T18:27:06Z</time></trkpt><trkpt lat="43.59343477002961" lon="11.35203732808186"><ele>468.5</ele><time>2026-03-31T18:27:07Z</time></trkpt><trkpt lat="43.59350710021971" lon="11.351859526067674"><ele>470.75</ele><time>2026-03-31T18:27:08Z</time></trkpt><trkpt lat="43.59356005075428" lon="11.351699110955662"><ele>473.0</ele><time>2026-03-31T18:27:09Z</time></trkpt><trkpt lat="43.59360897787532" lon="11.3515362097134"><ele>473.0</ele><time>2026-03-31T18:27:10Z</time></trkpt><trkpt lat="43.59364817840594" lon="11.351365616234622"><ele>473.0</ele><time>2026-03-31T18:27:11Z</time></trkpt><trkpt lat="43.593674163211695" lon="11.351183419974424"><ele>473.0</ele><time>2026-03-31T18:27:12Z</time></trkpt><trkpt lat="43.59368285398937" lon="11.351000700322727"><ele>473.0</ele><time>2026-03-31T18:27:13Z</time></trkpt><trkpt lat="43.59366960414754" lon="11.350833784651334"><ele>473.0</ele><time>2026-03-31T18:27:14Z</time></trkpt><trkpt lat="43.59362702817897" lon="11.350667177160185"><ele>473.0</ele><time>2026-03-31T18:27:14.999Z</time></trkpt><trkpt lat="43.593553779082505" lon="11.350510476782395"><ele>473.0</ele><time>2026-03-31T18:27:15.999Z</time></trkpt><trkpt lat="43.59347531795943" lon="11.350354159642249"><ele>473.0</ele><time>2026-03-31T18:27:16.999Z</time></trkpt><trkpt lat="43.59340934428269" lon="11.350183410955633"><ele>471.0</ele><time>2026-03-31T18:27:17.999Z</time></trkpt><trkpt lat="43.593364777144025" lon="11.35000530115421"><ele>469.0</ele><time>2026-03-31T18:27:18.999Z</time></trkpt><trkpt lat="43.59334715246982" lon="11.349824525959502"><ele>467.0</ele><time>2026-03-31T18:27:19.999Z</time></trkpt><trkpt lat="43.59335505599017" lon="11.349652971414413"><ele>465.0</ele><time>2026-03-31T18:27:20.999Z</time></trkpt><trkpt lat="43.593389593203135" lon="11.349488760754184"><ele>462.75</ele><time>2026-03-31T18:27:21.999Z</time></trkpt><trkpt lat="43.59343652541025" lon="11.349336162925265"><ele>460.5</ele><time>2026-03-31T18:27:22.999Z</time></trkpt><trkpt lat="43.593479802204875" lon="11.349185906617357"><ele>458.25</ele><time>2026-03-31T18:27:23.999Z</time></trkpt><trkpt lat="43.59349347900289" lon="11.34903156038114"><ele>456.0</ele><time>2026-03-31T18:27:24.999Z</time></trkpt><trkpt lat="43.59347042261035" lon="11.348882257163156"><ele>453.0</ele><time>2026-03-31T18:27:25.999Z</time></trkpt><trkpt lat="43.59341982896907" lon="11.348733003572857"><ele>450.0</ele><time>2026-03-31T18:27:26.999Z</time></trkpt><trkpt lat="43.59334643381343" lon="11.348589480432814"><ele>447.0</ele><time>2026-03-31T18:27:27.999Z</time></trkpt><trkpt lat="43.59327674454097" lon="11.348443112565393"><ele>444.0</ele><time>2026-03-31T18:27:28.999Z</time></trkpt><trkpt lat="43.59321597622089" lon="11.34828129553101"><ele>444.0</ele><time>2026-03-31T18:27:29.999Z</time></trkpt><trkpt lat="43.59316517938204" lon="11.348118414142409"><ele>444.0</ele><time>2026-03-31T18:27:30.999Z</time></trkpt><trkpt lat="43.59313611035533" lon="11.347948695492041"><ele>444.0</ele><time>2026-03-31T18:27:31.999Z</time></trkpt><trkpt lat="43.593164564492426" lon="11.347787023194197"><ele>444.0</ele><time>2026-03-31T18:27:32.999Z</time></trkpt><trkpt lat="43.593177079070244" lon="11.347621992659814"><ele>442.79999999999995</ele><time>2026-03-31T18:27:33.999Z</time></trkpt><trkpt lat="43.59321759906743" lon="11.347477416031062"><ele>441.59999999999997</ele><time>2026-03-31T18:27:34.999Z</time></trkpt><trkpt lat="43.59323312069713" lon="11.347333902736848"><ele>440.4</ele><time>2026-03-31T18:27:35.999Z</time></trkpt><trkpt lat="43.59321614765457" lon="11.347194299247969"><ele>439.2</ele><time>2026-03-31T18:27:36.999Z</time></trkpt><trkpt lat="43.59316793421599" lon="11.347059037816685"><ele>438.0</ele><time>2026-03-31T18:27:37.999Z</time></trkpt><trkpt lat="43.59309107078942" lon="11.34693745619728"><ele>438.75</ele><time>2026-03-31T18:27:38.999Z</time></trkpt><trkpt lat="43.59299167220537" lon="11.346835010293287"><ele>439.5</ele><time>2026-03-31T18:27:39.999Z</time></trkpt><trkpt lat="43.592890165850626" lon="11.346730679137686"><ele>440.25</ele><time>2026-03-31T18:27:40.999Z</time></trkpt><trkpt lat="43.59278740965118" lon="11.346619045732394"><ele>441.0</ele><time>2026-03-31T18:27:41.999Z</time></trkpt><trkpt lat="43.592683790716485" lon="11.346507478926503"><ele>441.0</ele><time>2026-03-31T18:27:42.999Z</time></trkpt><trkpt lat="43.592578841092475" lon="11.346410712845238"><ele>441.0</ele><time>2026-03-31T18:27:43.999Z</time></trkpt><trkpt lat="43.59247115023159" lon="11.346331372583935"><ele>441.0</ele><time>2026-03-31T18:27:44.999Z</time></trkpt><trkpt lat="43.592360192973594" lon="11.346282434723344"><ele>441.0</ele><time>2026-03-31T18:27:45.999Z</time></trkpt><trkpt lat="43.59224173636134" lon="11.346254325482633"><ele>437.5</ele><time>2026-03-31T18:27:46.999Z</time></trkpt><trkpt lat="43.59212039134844" lon="11.346240874935875"><ele>434.0</ele><time>2026-03-31T18:27:47.999Z</time></trkpt><trkpt lat="43.591995847073" lon="11.346246939307878"><ele>430.5</ele><time>2026-03-31T18:27:48.999Z</time></trkpt><trkpt lat="43.59187174336796" lon="11.346261925797108"><ele>427.0</ele><time>2026-03-31T18:27:49.999Z</time></trkpt><trkpt lat="43.591746367829245" lon="11.346285296076573"><ele>427.0</ele><time>2026-03-31T18:27:50.999Z</time></trkpt><trkpt lat="43.59161874450177" lon="11.346292577981036"><ele>427.0</ele><time>2026-03-31T18:27:51.999Z</time></trkpt><trkpt lat="43.59148766333667" lon="11.346286255745117"><ele>427.0</ele><time>2026-03-31T18:27:52.999Z</time></trkpt><trkpt lat="43.5913724277573" lon="11.34624382955935"><ele>427.0</ele><time>2026-03-31T18:27:53.999Z</time></trkpt><trkpt lat="43.59127588838004" lon="11.346152743874184"><ele>427.0</ele><time>2026-03-31T18:27:54.999Z</time></trkpt><trkpt lat="43.59120215760398" lon="11.346026888882188"><ele>427.0</ele><time>2026-03-31T18:27:55.999Z</time></trkpt><trkpt lat="43.5911499867694" lon="11.34587844276443"><ele>427.0</ele><time>2026-03-31T18:27:56.999Z</time></trkpt><trkpt lat="43.59114402914341" lon="11.34571750920461"><ele>427.0</ele><time>2026-03-31T18:27:57.999Z</time></trkpt><trkpt lat="43.59111701314942" lon="11.34555438964807"><ele>428.0</ele><time>2026-03-31T18:27:58.999Z</time></trkpt><trkpt lat="43.59111680600237" lon="11.345384123119887"><ele>429.0</ele><time>2026-03-31T18:27:59.999Z</time></trkpt><trkpt lat="43.591123082198465" lon="11.345207656672944"><ele>430.0</ele><time>2026-03-31T18:28:00.999Z</time></trkpt><trkpt lat="43.591149912596144" lon="11.345036181236607"><ele>431.0</ele><time>2026-03-31T18:28:01.999Z</time></trkpt><trkpt lat="43.59119516934723" lon="11.344876677201201"><ele>429.0</ele><time>2026-03-31T18:28:02.999Z</time></trkpt><trkpt lat="43.59125894180386" lon="11.344720320537489"><ele>427.0</ele><time>2026-03-31T18:28:03.999Z</time></trkpt><trkpt lat="43.59132052769871" lon="11.34455576778065"><ele>425.0</ele><time>2026-03-31T18:28:04.999Z</time></trkpt><trkpt lat="43.59138463666308" lon="11.344378061898988"><ele>423.0</ele><time>2026-03-31T18:28:05.999Z</time></trkpt><trkpt lat="43.591447361697185" lon="11.344205433008753"><ele>423.0</ele><time>2026-03-31T18:28:06.999Z</time></trkpt><trkpt lat="43.591505163190135" lon="11.344051833064022"><ele>423.0</ele><time>2026-03-31T18:28:07.999Z</time></trkpt><trkpt lat="43.59156158515869" lon="11.343902735658094"><ele>423.0</ele><time>2026-03-31T18:28:08.999Z</time></trkpt><trkpt lat="43.5916169414228" lon="11.343765174607862"><ele>423.0</ele><time>2026-03-31T18:28:09.999Z</time></trkpt><trkpt lat="43.59166981047353" lon="11.34363163135982"><ele>422.75</ele><time>2026-03-31T18:28:10.999Z</time></trkpt><trkpt lat="43.59172892707415" lon="11.34350962101003"><ele>422.5</ele><time>2026-03-31T18:28:11.999Z</time></trkpt><trkpt lat="43.5918198958778" lon="11.343420187890494"><ele>422.25</ele><time>2026-03-31T18:28:12.999Z</time></trkpt><trkpt lat="43.591919615624626" lon="11.34334376282748"><ele>422.0</ele><time>2026-03-31T18:28:13.999Z</time></trkpt><trkpt lat="43.592022650453025" lon="11.343257184941654"><ele>422.20000000000005</ele><time>2026-03-31T18:28:14.999Z</time></trkpt><trkpt lat="43.59213100773034" lon="11.343208340600022"><ele>422.4</ele><time>2026-03-31T18:28:15.999Z</time></trkpt><trkpt lat="43.59222603588805" lon="11.343152155646052"><ele>422.6</ele><time>2026-03-31T18:28:16.999Z</time></trkpt><trkpt lat="43.59231428340156" lon="11.3430780142999"><ele>422.79999999999995</ele><time>2026-03-31T18:28:17.999Z</time></trkpt><trkpt lat="43.59238339658696" lon="11.342976217595451"><ele>423.0</ele><time>2026-03-31T18:28:18.999Z</time></trkpt><trkpt lat="43.59243260687992" lon="11.342856323289084"><ele>423.0</ele><time>2026-03-31T18:28:19.999Z</time></trkpt><trkpt lat="43.59242760546839" lon="11.342711527553215"><ele>423.0</ele><time>2026-03-31T18:28:20.999Z</time></trkpt><trkpt lat="43.592452629462876" lon="11.34258327277628"><ele>423.0</ele><time>2026-03-31T18:28:21.999Z</time></trkpt><trkpt lat="43.59251466205255" lon="11.34247461772567"><ele>423.0</ele><time>2026-03-31T18:28:22.999Z</time></trkpt><trkpt lat="43.59260861476823" lon="11.342406818714874"><ele>423.0</ele><time>2026-03-31T18:28:23.999Z</time></trkpt><trkpt lat="43.59271191653507" lon="11.342405187500018"><ele>423.0</ele><time>2026-03-31T18:28:24.999Z</time></trkpt><trkpt lat="43.59280868015763" lon="11.342392296700323"><ele>423.0</ele><time>2026-03-31T18:28:25.999Z</time></trkpt><trkpt lat="43.59289222346619" lon="11.342331478714424"><ele>423.0</ele><time>2026-03-31T18:28:26.999Z</time></trkpt><trkpt lat="43.59297697650136" lon="11.342259019975442"><ele>423.0</ele><time>2026-03-31T18:28:27.999Z</time></trkpt><trkpt lat="43.59305625349649" lon="11.342172624402396"><ele>423.0</ele><time>2026-03-31T18:28:28.999Z</time></trkpt><trkpt lat="43.59315219490046" lon="11.342113471471803"><ele>421.4</ele><time>2026-03-31T18:28:29.999Z</time></trkpt><trkpt lat="43.59323703577676" lon="11.342044289127305"><ele>419.79999999999995</ele><time>2026-03-31T18:28:30.999Z</time></trkpt><trkpt lat="43.5933223749835" lon="11.341977831178431"><ele>418.2</ele><time>2026-03-31T18:28:31.999Z</time></trkpt><trkpt lat="43.593396803436896" lon="11.34189215642344"><ele>416.6</ele><time>2026-03-31T18:28:33Z</time></trkpt><trkpt lat="43.59347548996856" lon="11.341832292592464"><ele>415.0</ele><time>2026-03-31T18:28:34Z</time></trkpt><trkpt lat="43.59354549181143" lon="11.341764505419697"><ele>415.00000000000006</ele><time>2026-03-31T18:28:35Z</time></trkpt><trkpt lat="43.593597140640554" lon="11.34167197297304"><ele>415.0</ele><time>2026-03-31T18:28:36Z</time></trkpt><trkpt lat="43.593621211182445" lon="11.341557694410003"><ele>415.0</ele><time>2026-03-31T18:28:37Z</time></trkpt><trkpt lat="43.59361816275682" lon="11.341438596131058"><ele>415.0</ele><time>2026-03-31T18:28:38Z</time></trkpt><trkpt lat="43.59359178051895" lon="11.341328867282662"><ele>415.00000000000006</ele><time>2026-03-31T18:28:39Z</time></trkpt><trkpt lat="43.59354760598342" lon="11.341221508246008"><ele>415.0</ele><time>2026-03-31T18:28:40Z</time></trkpt><trkpt lat="43.59349176431676" lon="11.341124892118655"><ele>414.0</ele><time>2026-03-31T18:28:41Z</time></trkpt><trkpt lat="43.59343467043018" lon="11.341027459101143"><ele>413.0</ele><time>2026-03-31T18:28:42Z</time></trkpt><trkpt lat="43.59336878769508" lon="11.340936130447838"><ele>412.0</ele><time>2026-03-31T18:28:43Z</time></trkpt><trkpt lat="43.593293262157715" lon="11.34084895359376"><ele>411.0</ele><time>2026-03-31T18:28:44Z</time></trkpt><trkpt lat="43.593207082416185" lon="11.34077251984327"><ele>410.0</ele><time>2026-03-31T18:28:45Z</time></trkpt><trkpt lat="43.59312148625081" lon="11.340706900363553"><ele>410.0</ele><time>2026-03-31T18:28:46Z</time></trkpt><trkpt lat="43.59303448213084" lon="11.340645466513188"><ele>410.0</ele><time>2026-03-31T18:28:47Z</time></trkpt><trkpt lat="43.592947973612056" lon="11.34058379975394"><ele>410.0</ele><time>2026-03-31T18:28:48Z</time></trkpt><trkpt lat="43.59286328705695" lon="11.34050580774111"><ele>410.0</ele><time>2026-03-31T18:28:49Z</time></trkpt><trkpt lat="43.59278495058467" lon="11.340414240398868"><ele>410.0</ele><time>2026-03-31T18:28:50Z</time></trkpt><trkpt lat="43.59271854255005" lon="11.340313939448285"><ele>409.99999999999994</ele><time>2026-03-31T18:28:51Z</time></trkpt><trkpt lat="43.592664274589154" lon="11.340204382361469"><ele>410.0</ele><time>2026-03-31T18:28:52Z</time></trkpt><trkpt lat="43.59261974001971" lon="11.340104174792305"><ele>410.0</ele><time>2026-03-31T18:28:53Z</time></trkpt><trkpt lat="43.59258451581829" lon="11.3400077705664"><ele>410.0</ele><time>2026-03-31T18:28:54Z</time></trkpt><trkpt lat="43.59256110275096" lon="11.339913612706756"><ele>409.99999999999994</ele><time>2026-03-31T18:28:55Z</time></trkpt><trkpt lat="43.59254941627012" lon="11.339758636215203"><ele>410.0</ele><time>2026-03-31T18:28:57Z</time></trkpt><trkpt lat="43.59250390220883" lon="11.339692073635717"><ele>410.0</ele><time>2026-03-31T18:28:59Z</time></trkpt><trkpt lat="43.59252947857458" lon="11.33983816775066"><ele>410.0</ele><time>2026-03-31T18:29:02Z</time></trkpt><trkpt lat="43.592551297608466" lon="11.339952148164869"><ele>410.0</ele><time>2026-03-31T18:29:03Z</time></trkpt><trkpt lat="43.59258682652855" lon="11.340066980168034"><ele>410.0</ele><time>2026-03-31T18:29:04Z</time></trkpt><trkpt lat="43.59264056195689" lon="11.340195247959194"><ele>410.0</ele><time>2026-03-31T18:29:04.999Z</time></trkpt><trkpt lat="43.5927093831333" lon="11.340316121279233"><ele>410.0</ele><time>2026-03-31T18:29:05.999Z</time></trkpt><trkpt lat="43.5927975379702" lon="11.340445717357747"><ele>410.0</ele><time>2026-03-31T18:29:06.999Z</time></trkpt><trkpt lat="43.5928944124128" lon="11.34055923821276"><ele>410.0</ele><time>2026-03-31T18:29:07.999Z</time></trkpt><trkpt lat="43.59300604751124" lon="11.340653784194581"><ele>410.0</ele><time>2026-03-31T18:29:08.999Z</time></trkpt><trkpt lat="43.593123779152016" lon="11.340732146082699"><ele>410.0</ele><time>2026-03-31T18:29:09.999Z</time></trkpt><trkpt lat="43.593237528085496" lon="11.340819522295137"><ele>410.0</ele><time>2026-03-31T18:29:10.999Z</time></trkpt><trkpt lat="43.59334366332477" lon="11.340935131615945"><ele>410.0</ele><time>2026-03-31T18:29:11.999Z</time></trkpt><trkpt lat="43.593449201589216" lon="11.341075225745897"><ele>410.0</ele><time>2026-03-31T18:29:12.999Z</time></trkpt><trkpt lat="43.59353297883003" lon="11.341205160182666"><ele>410.0</ele><time>2026-03-31T18:29:13.999Z</time></trkpt><trkpt lat="43.59358935611782" lon="11.341338294478978"><ele>410.0</ele><time>2026-03-31T18:29:14.999Z</time></trkpt><trkpt lat="43.59361389209392" lon="11.341469331142369"><ele>410.0</ele><time>2026-03-31T18:29:15.999Z</time></trkpt><trkpt lat="43.59360509298343" lon="11.341588392100608"><ele>410.0</ele><time>2026-03-31T18:29:16.999Z</time></trkpt><trkpt lat="43.5935737399617" lon="11.341691859798052"><ele>410.0</ele><time>2026-03-31T18:29:17.999Z</time></trkpt><trkpt lat="43.59352361151957" lon="11.341780991177258"><ele>411.0</ele><time>2026-03-31T18:29:18.999Z</time></trkpt><trkpt lat="43.59346472106402" lon="11.341820874421574"><ele>412.0</ele><time>2026-03-31T18:29:19.999Z</time></trkpt><trkpt lat="43.59337370701602" lon="11.341714309362127"><ele>413.0</ele><time>2026-03-31T18:29:21.999Z</time></trkpt><trkpt lat="43.59334963962328" lon="11.341582862578003"><ele>414.0</ele><time>2026-03-31T18:29:22.999Z</time></trkpt><trkpt lat="43.593277051160385" lon="11.34159267241666"><ele>415.0</ele><time>2026-03-31T18:29:25.999Z</time></trkpt><trkpt lat="43.5931822462722" lon="11.341672630242766"><ele>415.00000000000006</ele><time>2026-03-31T18:29:27.999Z</time></trkpt><trkpt lat="43.593112974167575" lon="11.341655446875448"><ele>415.0</ele><time>2026-03-31T18:29:29.999Z</time></trkpt><trkpt lat="43.5930287444734" lon="11.341634869132163"><ele>415.0</ele><time>2026-03-31T18:29:31.999Z</time></trkpt><trkpt lat="43.592941151139804" lon="11.341573166848814"><ele>415.0</ele><time>2026-03-31T18:29:33.999Z</time></trkpt><trkpt lat="43.59288327106979" lon="11.341499936322766"><ele>415.00000000000006</ele><time>2026-03-31T18:29:35.999Z</time></trkpt><trkpt lat="43.59289359038716" lon="11.341388069254"><ele>415.0</ele><time>2026-03-31T18:29:37.999Z</time></trkpt><trkpt lat="43.59285711754221" lon="11.341306649817154"><ele>414.2857142857143</ele><time>2026-03-31T18:29:39.999Z</time></trkpt><trkpt lat="43.59289382623206" lon="11.341232610769922"><ele>413.57142857142856</ele><time>2026-03-31T18:29:41.999Z</time></trkpt><trkpt lat="43.592927730246785" lon="11.34113170128479"><ele>412.8571428571429</ele><time>2026-03-31T18:29:46.999Z</time></trkpt><trkpt lat="43.592981306029195" lon="11.341077554555172"><ele>412.1428571428571</ele><time>2026-03-31T18:29:50.999Z</time></trkpt><trkpt lat="43.593035251400885" lon="11.34113858098268"><ele>411.4285714285714</ele><time>2026-03-31T18:29:59.999Z</time></trkpt><trkpt lat="43.59310455300266" lon="11.341093079615058"><ele>410.7142857142857</ele><time>2026-03-31T18:30:06.999Z</time></trkpt><trkpt lat="43.593088023417984" lon="11.34100152389205"><ele>410.0</ele><time>2026-03-31T18:30:09.999Z</time></trkpt><trkpt lat="43.59303770388533" lon="11.340931149240452"><ele>409.99999999999994</ele><time>2026-03-31T18:30:12.999Z</time></trkpt><trkpt lat="43.593066508476255" lon="11.340850713389678"><ele>410.0</ele><time>2026-03-31T18:30:14.999Z</time></trkpt><trkpt lat="43.59312867863921" lon="11.34077825084266"><ele>410.0</ele><time>2026-03-31T18:30:18.999Z</time></trkpt><trkpt lat="43.593191617172444" lon="11.340821421397747"><ele>410.0</ele><time>2026-03-31T18:30:20.999Z</time></trkpt><trkpt lat="43.59323395604719" lon="11.34089145754398"><ele>409.99999999999994</ele><time>2026-03-31T18:30:22.999Z</time></trkpt><trkpt lat="43.59328112231299" lon="11.340976645456443"><ele>410.0</ele><time>2026-03-31T18:30:24.999Z</time></trkpt><trkpt lat="43.593319427228366" lon="11.341129840257823"><ele>409.99999999999994</ele><time>2026-03-31T18:30:26.999Z</time></trkpt><trkpt lat="43.593355244489324" lon="11.341245243556823"><ele>410.0</ele><time>2026-03-31T18:30:27.999Z</time></trkpt><trkpt lat="43.593390242004205" lon="11.341322997686879"><ele>410.0</ele><time>2026-03-31T18:30:28.999Z</time></trkpt><trkpt lat="43.59342270679187" lon="11.341398025942178"><ele>410.0</ele><time>2026-03-31T18:30:29.999Z</time></trkpt><trkpt lat="43.59343336089221" lon="11.34152303303299"><ele>409.99999999999994</ele><time>2026-03-31T18:30:31.999Z</time></trkpt><trkpt lat="43.59333327182973" lon="11.341605455313825"><ele>410.0</ele><time>2026-03-31T18:30:33.999Z</time></trkpt><trkpt lat="43.59326216078947" lon="11.341638266635982"><ele>410.8333333333333</ele><time>2026-03-31T18:30:34.999Z</time></trkpt><trkpt lat="43.59319809643912" lon="11.34166198062273"><ele>411.66666666666663</ele><time>2026-03-31T18:30:35.999Z</time></trkpt><trkpt lat="43.593116169626384" lon="11.341651224912182"><ele>412.5</ele><time>2026-03-31T18:30:37.999Z</time></trkpt><trkpt lat="43.593027960532474" lon="11.341631627595264"><ele>413.33333333333337</ele><time>2026-03-31T18:30:40Z</time></trkpt><trkpt lat="43.592932125721184" lon="11.341563742120934"><ele>414.1666666666667</ele><time>2026-03-31T18:30:42Z</time></trkpt><trkpt lat="43.59290334261713" lon="11.341647739271266"><ele>415.0</ele><time>2026-03-31T18:30:45Z</time></trkpt><trkpt lat="43.5929850438589" lon="11.341685173434293"><ele>415.00000000000006</ele><time>2026-03-31T18:30:47Z</time></trkpt><trkpt lat="43.59303508396532" lon="11.341598635475577"><ele>415.0</ele><time>2026-03-31T18:30:49Z</time></trkpt><trkpt lat="43.59312283025465" lon="11.341656386509825"><ele>415.0</ele><time>2026-03-31T18:30:52Z</time></trkpt><trkpt lat="43.5932104123595" lon="11.341660372146777"><ele>415.0</ele><time>2026-03-31T18:30:54Z</time></trkpt><trkpt lat="43.593272788623615" lon="11.341632454460333"><ele>415.00000000000006</ele><time>2026-03-31T18:30:55Z</time></trkpt><trkpt lat="43.59337581026343" lon="11.341567070675312"><ele>415.0</ele><time>2026-03-31T18:30:57Z</time></trkpt><trkpt lat="43.5934536013855" lon="11.341469866672384"><ele>414.0</ele><time>2026-03-31T18:30:59Z</time></trkpt><trkpt lat="43.59341261079305" lon="11.34137623539522"><ele>413.0</ele><time>2026-03-31T18:31:01Z</time></trkpt><trkpt lat="43.59335244459982" lon="11.341206008537895"><ele>412.0</ele><time>2026-03-31T18:31:03Z</time></trkpt><trkpt lat="43.59330282090798" lon="11.34106479369202"><ele>411.0</ele><time>2026-03-31T18:31:05Z</time></trkpt><trkpt lat="43.59327087668017" lon="11.340957137875785"><ele>410.0</ele><time>2026-03-31T18:31:07Z</time></trkpt><trkpt lat="43.59322246158511" lon="11.340872708162452"><ele>410.0</ele><time>2026-03-31T18:31:08.999Z</time></trkpt><trkpt lat="43.593170843201186" lon="11.340799466154749"><ele>410.0</ele><time>2026-03-31T18:31:09.999Z</time></trkpt><trkpt lat="43.59310410182236" lon="11.340708448558074"><ele>410.0</ele><time>2026-03-31T18:31:10.999Z</time></trkpt><trkpt lat="43.59300252058183" lon="11.340630977625011"><ele>410.0</ele><time>2026-03-31T18:31:11.999Z</time></trkpt><trkpt lat="43.59288260236657" lon="11.340539212723835"><ele>410.0</ele><time>2026-03-31T18:31:12.999Z</time></trkpt><trkpt lat="43.592780402948975" lon="11.34042663571693"><ele>410.0</ele><time>2026-03-31T18:31:13.999Z</time></trkpt><trkpt lat="43.59270347792619" lon="11.340296308525698"><ele>410.0</ele><time>2026-03-31T18:31:14.999Z</time></trkpt><trkpt lat="43.592638860353794" lon="11.340166318153635"><ele>410.0</ele><time>2026-03-31T18:31:15.999Z</time></trkpt><trkpt lat="43.59257484217962" lon="11.34002225743504"><ele>410.0</ele><time>2026-03-31T18:31:16.999Z</time></trkpt><trkpt lat="43.59252254584834" lon="11.339851088168109"><ele>406.3333333333333</ele><time>2026-03-31T18:31:17.999Z</time></trkpt><trkpt lat="43.59248687300153" lon="11.339655218961921"><ele>402.66666666666663</ele><time>2026-03-31T18:31:18.999Z</time></trkpt><trkpt lat="43.592451788968866" lon="11.33942152775498"><ele>399.0</ele><time>2026-03-31T18:31:19.999Z</time></trkpt><trkpt lat="43.592406460633384" lon="11.339198304323274"><ele>399.0</ele><time>2026-03-31T18:31:20.999Z</time></trkpt><trkpt lat="43.59235775058171" lon="11.338996107786361"><ele>399.0</ele><time>2026-03-31T18:31:21.999Z</time></trkpt><trkpt lat="43.59230882296969" lon="11.338805918394188"><ele>399.0</ele><time>2026-03-31T18:31:22.999Z</time></trkpt><trkpt lat="43.59226397941203" lon="11.33861892580156"><ele>399.0</ele><time>2026-03-31T18:31:23.999Z</time></trkpt><trkpt lat="43.5922284082432" lon="11.338437414698008"><ele>396.5</ele><time>2026-03-31T18:31:24.999Z</time></trkpt><trkpt lat="43.59219613143758" lon="11.338265918244307"><ele>394.0</ele><time>2026-03-31T18:31:25.999Z</time></trkpt><trkpt lat="43.59215410789549" lon="11.338116085093445"><ele>391.5</ele><time>2026-03-31T18:31:26.999Z</time></trkpt><trkpt lat="43.59209826564053" lon="11.337979410620607"><ele>389.0</ele><time>2026-03-31T18:31:27.999Z</time></trkpt><trkpt lat="43.592014249734056" lon="11.337861071566506"><ele>389.5</ele><time>2026-03-31T18:31:28.999Z</time></trkpt><trkpt lat="43.591907357917414" lon="11.337763791867964"><ele>390.0</ele><time>2026-03-31T18:31:29.999Z</time></trkpt><trkpt lat="43.59179020876262" lon="11.337667760143438"><ele>390.5</ele><time>2026-03-31T18:31:30.999Z</time></trkpt><trkpt lat="43.591676791609714" lon="11.337549885712013"><ele>391.0</ele><time>2026-03-31T18:31:31.999Z</time></trkpt><trkpt lat="43.59158937249324" lon="11.337408282815678"><ele>391.0</ele><time>2026-03-31T18:31:32.999Z</time></trkpt><trkpt lat="43.59150335458623" lon="11.337273724533032"><ele>391.0</ele><time>2026-03-31T18:31:33.999Z</time></trkpt><trkpt lat="43.591441582259876" lon="11.337125910153233"><ele>391.0</ele><time>2026-03-31T18:31:34.999Z</time></trkpt><trkpt lat="43.591406708681646" lon="11.336967522381705"><ele>391.0</ele><time>2026-03-31T18:31:35.999Z</time></trkpt><trkpt lat="43.591388372142916" lon="11.336810243595137"><ele>385.75</ele><time>2026-03-31T18:31:36.999Z</time></trkpt><trkpt lat="43.591376219100255" lon="11.336644681248469"><ele>380.5</ele><time>2026-03-31T18:31:37.999Z</time></trkpt><trkpt lat="43.591353626942094" lon="11.336472827011896"><ele>375.25</ele><time>2026-03-31T18:31:38.999Z</time></trkpt><trkpt lat="43.59130632103464" lon="11.336306547497331"><ele>370.0</ele><time>2026-03-31T18:31:39.999Z</time></trkpt><trkpt lat="43.59124710058431" lon="11.336144968776102"><ele>372.0</ele><time>2026-03-31T18:31:40.999Z</time></trkpt><trkpt lat="43.591160336047786" lon="11.335995648169835"><ele>374.0</ele><time>2026-03-31T18:31:41.999Z</time></trkpt><trkpt lat="43.59105650571356" lon="11.335840745120208"><ele>376.0</ele><time>2026-03-31T18:31:42.999Z</time></trkpt><trkpt lat="43.59094557961208" lon="11.335697880846878"><ele>378.0</ele><time>2026-03-31T18:31:43.999Z</time></trkpt><trkpt lat="43.59083765495012" lon="11.335565762723313"><ele>373.5</ele><time>2026-03-31T18:31:44.999Z</time></trkpt><trkpt lat="43.590733083650875" lon="11.335423668592297"><ele>369.0</ele><time>2026-03-31T18:31:45.999Z</time></trkpt><trkpt lat="43.590636050008754" lon="11.335275783718965"><ele>364.5</ele><time>2026-03-31T18:31:46.999Z</time></trkpt><trkpt lat="43.590541646248695" lon="11.335143598518924"><ele>360.0</ele><time>2026-03-31T18:31:47.999Z</time></trkpt><trkpt lat="43.590448830933894" lon="11.33502684623741"><ele>360.0</ele><time>2026-03-31T18:31:48.999Z</time></trkpt><trkpt lat="43.59036179896146" lon="11.33491862438277"><ele>360.0</ele><time>2026-03-31T18:31:49.999Z</time></trkpt><trkpt lat="43.590286083549756" lon="11.334828136049673"><ele>360.0</ele><time>2026-03-31T18:31:50.999Z</time></trkpt><trkpt lat="43.59022276948534" lon="11.334754979393033"><ele>360.0</ele><time>2026-03-31T18:31:51.999Z</time></trkpt><trkpt lat="43.59015093406748" lon="11.334653916526646"><ele>360.0</ele><time>2026-03-31T18:31:53.999Z</time></trkpt><trkpt lat="43.59019345231255" lon="11.334567360867673"><ele>360.0</ele><time>2026-03-31T18:31:56.999Z</time></trkpt><trkpt lat="43.590235116961935" lon="11.334643380258097"><ele>360.0</ele><time>2026-03-31T18:31:58.999Z</time></trkpt><trkpt lat="43.59028493670182" lon="11.334704854417677"><ele>360.0</ele><time>2026-03-31T18:32:00.999Z</time></trkpt><trkpt lat="43.59033671816382" lon="11.334766358866561"><ele>360.0</ele><time>2026-03-31T18:32:02.999Z</time></trkpt><trkpt lat="43.59039586411366" lon="11.334830715025015"><ele>360.0</ele><time>2026-03-31T18:32:04.999Z</time></trkpt><trkpt lat="43.59045537274408" lon="11.334897482968538"><ele>360.0</ele><time>2026-03-31T18:32:06.999Z</time></trkpt><trkpt lat="43.590514375162456" lon="11.3349314637145"><ele>360.0</ele><time>2026-03-31T18:32:07.999Z</time></trkpt><trkpt lat="43.590593004745614" lon="11.334993688051712"><ele>360.0</ele><time>2026-03-31T18:32:09.999Z</time></trkpt><trkpt lat="43.590515590231675" lon="11.334972770012524"><ele>360.0</ele><time>2026-03-31T18:32:12.999Z</time></trkpt><trkpt lat="43.59046753644912" lon="11.334912294933135"><ele>360.0</ele><time>2026-03-31T18:32:13.999Z</time></trkpt><trkpt lat="43.590410610841744" lon="11.334846928675066"><ele>360.0</ele><time>2026-03-31T18:32:14.999Z</time></trkpt><trkpt lat="43.590344070770364" lon="11.334773769330829"><ele>360.0</ele><time>2026-03-31T18:32:15.999Z</time></trkpt><trkpt lat="43.590240480009086" lon="11.334650673313815"><ele>360.0</ele><time>2026-03-31T18:32:17.999Z</time></trkpt><trkpt lat="43.590397077863834" lon="11.334317387754789"><ele>360.3333333333333</ele><time>2026-03-31T18:32:18.999Z</time></trkpt><trkpt lat="43.59037420817457" lon="11.334236109218727"><ele>360.6666666666667</ele><time>2026-03-31T18:32:19.999Z</time></trkpt><trkpt lat="43.59036088582983" lon="11.334137873303876"><ele>361.0</ele><time>2026-03-31T18:32:20.999Z</time></trkpt><trkpt lat="43.59033442488517" lon="11.33397072664438"><ele>361.33333333333337</ele><time>2026-03-31T18:32:22.999Z</time></trkpt><trkpt lat="43.59029776552514" lon="11.333894571911458"><ele>361.6666666666667</ele><time>2026-03-31T18:32:23.999Z</time></trkpt><trkpt lat="43.590225299139234" lon="11.333794960931856"><ele>362.0</ele><time>2026-03-31T18:32:25.999Z</time></trkpt><trkpt lat="43.59016208615003" lon="11.33373067339302"><ele>347.0</ele><time>2026-03-31T18:32:27.999Z</time></trkpt><trkpt lat="43.59008402943256" lon="11.333701222167475"><ele>347.0</ele><time>2026-03-31T18:32:29.999Z</time></trkpt><trkpt lat="43.5900016213448" lon="11.333651222345507"><ele>347.0</ele><time>2026-03-31T18:32:31.999Z</time></trkpt><trkpt lat="43.58995258450333" lon="11.333560365396155"><ele>347.0</ele><time>2026-03-31T18:32:33.999Z</time></trkpt><trkpt lat="43.58994211679166" lon="11.333451656840277"><ele>347.0</ele><time>2026-03-31T18:32:36.999Z</time></trkpt><trkpt lat="43.58990901310272" lon="11.333373921272996"><ele>347.0</ele><time>2026-03-31T18:32:48Z</time></trkpt></trkseg></trk></gpx>